<?xml version="1.0" encoding="UTF-8" standalone="no" ?>
<gpx xmlns="http://www.topografix.com/GPX/1/1" xmlns:xsi="http://www.w3.org/2001/XMLSchema-instance" xsi:schemaLocation="http://www.topografix.com/GPX/1/1 http://www.topografix.com/GPX/1/1/gpx.xsd" version="1.1" creator="VisuGPX - https://www.visugpx.com">
  <metadata>
    <name>Goult- Le grand tour du ùange tian</name>
    <desc><![CDATA[Balade entre Goult et Lumière.]]></desc>
  </metadata>
  <trk>
    <name><![CDATA[Goult. grand tour du mange-Tian]]></name>
    <trkseg>
      <trkpt lat="43.86301" lon="5.24349">
        <ele>258.3</ele>
        <time>2013-11-15T09:12:56Z</time>
      </trkpt>
      <trkpt lat="43.86301" lon="5.24347">
        <ele>256.3</ele>
        <time>2013-11-15T09:12:59Z</time>
      </trkpt>
      <trkpt lat="43.86301" lon="5.24347">
        <ele>253.4</ele>
        <time>2013-11-15T09:13:01Z</time>
      </trkpt>
      <trkpt lat="43.86301" lon="5.24346">
        <ele>252</ele>
        <time>2013-11-15T09:13:03Z</time>
      </trkpt>
      <trkpt lat="43.86301" lon="5.24347">
        <ele>250.1</ele>
        <time>2013-11-15T09:13:06Z</time>
      </trkpt>
      <trkpt lat="43.86301" lon="5.24347">
        <ele>248.6</ele>
        <time>2013-11-15T09:13:09Z</time>
      </trkpt>
      <trkpt lat="43.86301" lon="5.24347">
        <ele>248.6</ele>
        <time>2013-11-15T09:13:10Z</time>
      </trkpt>
      <trkpt lat="43.86302" lon="5.24347">
        <ele>245.3</ele>
        <time>2013-11-15T09:13:19Z</time>
      </trkpt>
      <trkpt lat="43.86304" lon="5.24347">
        <ele>242.4</ele>
        <time>2013-11-15T09:13:31Z</time>
      </trkpt>
      <trkpt lat="43.86302" lon="5.24347">
        <ele>241.9</ele>
        <time>2013-11-15T09:13:36Z</time>
      </trkpt>
      <trkpt lat="43.86303" lon="5.24347">
        <ele>239</ele>
        <time>2013-11-15T09:13:51Z</time>
      </trkpt>
      <trkpt lat="43.86309" lon="5.24351">
        <ele>237.6</ele>
        <time>2013-11-15T09:14:01Z</time>
      </trkpt>
      <trkpt lat="43.86311" lon="5.24353">
        <ele>235.2</ele>
        <time>2013-11-15T09:14:21Z</time>
      </trkpt>
      <trkpt lat="43.86309" lon="5.2435">
        <ele>234.7</ele>
        <time>2013-11-15T09:14:36Z</time>
      </trkpt>
      <trkpt lat="43.86308" lon="5.24347">
        <ele>234.7</ele>
        <time>2013-11-15T09:14:39Z</time>
      </trkpt>
      <trkpt lat="43.86303" lon="5.24349">
        <ele>234.7</ele>
        <time>2013-11-15T09:14:50Z</time>
      </trkpt>
      <trkpt lat="43.86302" lon="5.24352">
        <ele>234.2</ele>
        <time>2013-11-15T09:15:05Z</time>
      </trkpt>
      <trkpt lat="43.86302" lon="5.24352">
        <ele>234.2</ele>
        <time>2013-11-15T09:15:26Z</time>
      </trkpt>
      <trkpt lat="43.86303" lon="5.24352">
        <ele>234.2</ele>
        <time>2013-11-15T09:15:49Z</time>
      </trkpt>
      <trkpt lat="43.86305" lon="5.24351">
        <ele>234.2</ele>
        <time>2013-11-15T09:16:14Z</time>
      </trkpt>
      <trkpt lat="43.86305" lon="5.24351">
        <ele>235.2</ele>
        <time>2013-11-15T09:16:24Z</time>
      </trkpt>
      <trkpt lat="43.86304" lon="5.2435">
        <ele>235.2</ele>
        <time>2013-11-15T09:16:40Z</time>
      </trkpt>
      <trkpt lat="43.86305" lon="5.2435">
        <ele>235.2</ele>
        <time>2013-11-15T09:17:00Z</time>
      </trkpt>
      <trkpt lat="43.86304" lon="5.2435">
        <ele>234.7</ele>
        <time>2013-11-15T09:17:17Z</time>
      </trkpt>
      <trkpt lat="43.86303" lon="5.24349">
        <ele>235.2</ele>
        <time>2013-11-15T09:17:30Z</time>
      </trkpt>
      <trkpt lat="43.86302" lon="5.24348">
        <ele>235.2</ele>
        <time>2013-11-15T09:17:44Z</time>
      </trkpt>
      <trkpt lat="43.86298" lon="5.24348">
        <ele>234.7</ele>
        <time>2013-11-15T09:17:55Z</time>
      </trkpt>
      <trkpt lat="43.86296" lon="5.24348">
        <ele>234.7</ele>
        <time>2013-11-15T09:18:08Z</time>
      </trkpt>
      <trkpt lat="43.86297" lon="5.24348">
        <ele>235.2</ele>
        <time>2013-11-15T09:18:09Z</time>
      </trkpt>
      <trkpt lat="43.86302" lon="5.24346">
        <ele>235.2</ele>
        <time>2013-11-15T09:18:21Z</time>
      </trkpt>
      <trkpt lat="43.86302" lon="5.24347">
        <ele>234.7</ele>
        <time>2013-11-15T09:18:34Z</time>
      </trkpt>
      <trkpt lat="43.86309" lon="5.24339">
        <ele>235.7</ele>
        <time>2013-11-15T09:18:44Z</time>
      </trkpt>
      <trkpt lat="43.86317" lon="5.24329">
        <ele>235.7</ele>
        <time>2013-11-15T09:18:55Z</time>
      </trkpt>
      <trkpt lat="43.86319" lon="5.24326">
        <ele>235.7</ele>
        <time>2013-11-15T09:18:58Z</time>
      </trkpt>
      <trkpt lat="43.86323" lon="5.24319">
        <ele>236.1</ele>
        <time>2013-11-15T09:19:04Z</time>
      </trkpt>
      <trkpt lat="43.86325" lon="5.24314">
        <ele>236.1</ele>
        <time>2013-11-15T09:19:09Z</time>
      </trkpt>
      <trkpt lat="43.86332" lon="5.24304">
        <ele>236.6</ele>
        <time>2013-11-15T09:19:21Z</time>
      </trkpt>
      <trkpt lat="43.86334" lon="5.24302">
        <ele>237.1</ele>
        <time>2013-11-15T09:19:23Z</time>
      </trkpt>
      <trkpt lat="43.86338" lon="5.24288">
        <ele>237.1</ele>
        <time>2013-11-15T09:19:34Z</time>
      </trkpt>
      <trkpt lat="43.86339" lon="5.24282">
        <ele>237.1</ele>
        <time>2013-11-15T09:19:39Z</time>
      </trkpt>
      <trkpt lat="43.86345" lon="5.24274">
        <ele>237.6</ele>
        <time>2013-11-15T09:19:46Z</time>
      </trkpt>
      <trkpt lat="43.86347" lon="5.24261">
        <ele>238.5</ele>
        <time>2013-11-15T09:19:58Z</time>
      </trkpt>
      <trkpt lat="43.86349" lon="5.24244">
        <ele>239</ele>
        <time>2013-11-15T09:20:11Z</time>
      </trkpt>
      <trkpt lat="43.86348" lon="5.24238">
        <ele>239</ele>
        <time>2013-11-15T09:20:14Z</time>
      </trkpt>
      <trkpt lat="43.8635" lon="5.24225">
        <ele>240</ele>
        <time>2013-11-15T09:20:23Z</time>
      </trkpt>
      <trkpt lat="43.86358" lon="5.24209">
        <ele>241.4</ele>
        <time>2013-11-15T09:20:37Z</time>
      </trkpt>
      <trkpt lat="43.86356" lon="5.24204">
        <ele>241.4</ele>
        <time>2013-11-15T09:20:57Z</time>
      </trkpt>
      <trkpt lat="43.86356" lon="5.24203">
        <ele>241</ele>
        <time>2013-11-15T09:21:13Z</time>
      </trkpt>
      <trkpt lat="43.86357" lon="5.24207">
        <ele>241</ele>
        <time>2013-11-15T09:21:33Z</time>
      </trkpt>
      <trkpt lat="43.86371" lon="5.24198">
        <ele>241.9</ele>
        <time>2013-11-15T09:21:46Z</time>
      </trkpt>
      <trkpt lat="43.86373" lon="5.24197">
        <ele>242.4</ele>
        <time>2013-11-15T09:21:49Z</time>
      </trkpt>
      <trkpt lat="43.86377" lon="5.24195">
        <ele>242.9</ele>
        <time>2013-11-15T09:21:52Z</time>
      </trkpt>
      <trkpt lat="43.86382" lon="5.24193">
        <ele>243.4</ele>
        <time>2013-11-15T09:21:56Z</time>
      </trkpt>
      <trkpt lat="43.86383" lon="5.24186">
        <ele>243.4</ele>
        <time>2013-11-15T09:22:00Z</time>
      </trkpt>
      <trkpt lat="43.86385" lon="5.24183">
        <ele>243.8</ele>
        <time>2013-11-15T09:22:03Z</time>
      </trkpt>
      <trkpt lat="43.86391" lon="5.24177">
        <ele>244.8</ele>
        <time>2013-11-15T09:22:10Z</time>
      </trkpt>
      <trkpt lat="43.86394" lon="5.24174">
        <ele>245.3</ele>
        <time>2013-11-15T09:22:13Z</time>
      </trkpt>
      <trkpt lat="43.86396" lon="5.24176">
        <ele>246.2</ele>
        <time>2013-11-15T09:22:15Z</time>
      </trkpt>
      <trkpt lat="43.86399" lon="5.24175">
        <ele>246.2</ele>
        <time>2013-11-15T09:22:17Z</time>
      </trkpt>
      <trkpt lat="43.86402" lon="5.24162">
        <ele>247.2</ele>
        <time>2013-11-15T09:22:30Z</time>
      </trkpt>
      <trkpt lat="43.86401" lon="5.2415">
        <ele>248.2</ele>
        <time>2013-11-15T09:22:39Z</time>
      </trkpt>
      <trkpt lat="43.864" lon="5.24147">
        <ele>247.7</ele>
        <time>2013-11-15T09:22:41Z</time>
      </trkpt>
      <trkpt lat="43.86398" lon="5.24132">
        <ele>248.6</ele>
        <time>2013-11-15T09:22:51Z</time>
      </trkpt>
      <trkpt lat="43.86397" lon="5.24117">
        <ele>249.6</ele>
        <time>2013-11-15T09:23:02Z</time>
      </trkpt>
      <trkpt lat="43.86394" lon="5.24095">
        <ele>250.1</ele>
        <time>2013-11-15T09:23:13Z</time>
      </trkpt>
      <trkpt lat="43.86393" lon="5.24076">
        <ele>251</ele>
        <time>2013-11-15T09:23:23Z</time>
      </trkpt>
      <trkpt lat="43.86394" lon="5.24064">
        <ele>252</ele>
        <time>2013-11-15T09:23:33Z</time>
      </trkpt>
      <trkpt lat="43.86394" lon="5.24059">
        <ele>253</ele>
        <time>2013-11-15T09:23:44Z</time>
      </trkpt>
      <trkpt lat="43.86392" lon="5.24046">
        <ele>254.9</ele>
        <time>2013-11-15T09:23:55Z</time>
      </trkpt>
      <trkpt lat="43.86393" lon="5.24043">
        <ele>254.9</ele>
        <time>2013-11-15T09:24:09Z</time>
      </trkpt>
      <trkpt lat="43.86393" lon="5.24042">
        <ele>254.9</ele>
        <time>2013-11-15T09:24:18Z</time>
      </trkpt>
      <trkpt lat="43.86387" lon="5.24034">
        <ele>257.3</ele>
        <time>2013-11-15T09:24:32Z</time>
      </trkpt>
      <trkpt lat="43.86382" lon="5.24029">
        <ele>258.3</ele>
        <time>2013-11-15T09:24:41Z</time>
      </trkpt>
      <trkpt lat="43.86375" lon="5.24013">
        <ele>259.7</ele>
        <time>2013-11-15T09:24:55Z</time>
      </trkpt>
      <trkpt lat="43.86375" lon="5.24012">
        <ele>259.7</ele>
        <time>2013-11-15T09:25:22Z</time>
      </trkpt>
      <trkpt lat="43.86376" lon="5.24008">
        <ele>259.2</ele>
        <time>2013-11-15T09:25:34Z</time>
      </trkpt>
      <trkpt lat="43.86374" lon="5.24002">
        <ele>259.2</ele>
        <time>2013-11-15T09:25:40Z</time>
      </trkpt>
      <trkpt lat="43.86371" lon="5.23996">
        <ele>260.2</ele>
        <time>2013-11-15T09:25:52Z</time>
      </trkpt>
      <trkpt lat="43.86372" lon="5.23999">
        <ele>259.2</ele>
        <time>2013-11-15T09:26:08Z</time>
      </trkpt>
      <trkpt lat="43.86372" lon="5.24005">
        <ele>259.2</ele>
        <time>2013-11-15T09:26:21Z</time>
      </trkpt>
      <trkpt lat="43.8637" lon="5.24007">
        <ele>259.2</ele>
        <time>2013-11-15T09:26:42Z</time>
      </trkpt>
      <trkpt lat="43.86367" lon="5.24012">
        <ele>258.3</ele>
        <time>2013-11-15T09:26:54Z</time>
      </trkpt>
      <trkpt lat="43.8637" lon="5.2401">
        <ele>258.3</ele>
        <time>2013-11-15T09:27:12Z</time>
      </trkpt>
      <trkpt lat="43.86365" lon="5.24004">
        <ele>258.3</ele>
        <time>2013-11-15T09:27:32Z</time>
      </trkpt>
      <trkpt lat="43.86364" lon="5.24003">
        <ele>258.3</ele>
        <time>2013-11-15T09:27:48Z</time>
      </trkpt>
      <trkpt lat="43.86362" lon="5.24004">
        <ele>258.3</ele>
        <time>2013-11-15T09:27:50Z</time>
      </trkpt>
      <trkpt lat="43.86363" lon="5.24009">
        <ele>258.3</ele>
        <time>2013-11-15T09:27:56Z</time>
      </trkpt>
      <trkpt lat="43.86364" lon="5.24017">
        <ele>257.8</ele>
        <time>2013-11-15T09:28:09Z</time>
      </trkpt>
      <trkpt lat="43.86363" lon="5.24016">
        <ele>257.8</ele>
        <time>2013-11-15T09:28:18Z</time>
      </trkpt>
      <trkpt lat="43.86362" lon="5.24015">
        <ele>257.8</ele>
        <time>2013-11-15T09:28:29Z</time>
      </trkpt>
      <trkpt lat="43.86363" lon="5.24015">
        <ele>257.8</ele>
        <time>2013-11-15T09:28:45Z</time>
      </trkpt>
      <trkpt lat="43.86363" lon="5.24015">
        <ele>257.8</ele>
        <time>2013-11-15T09:29:03Z</time>
      </trkpt>
      <trkpt lat="43.86363" lon="5.24015">
        <ele>257.3</ele>
        <time>2013-11-15T09:29:20Z</time>
      </trkpt>
      <trkpt lat="43.86365" lon="5.2401">
        <ele>257.8</ele>
        <time>2013-11-15T09:29:34Z</time>
      </trkpt>
      <trkpt lat="43.86364" lon="5.2401">
        <ele>257.3</ele>
        <time>2013-11-15T09:29:36Z</time>
      </trkpt>
      <trkpt lat="43.86367" lon="5.24001">
        <ele>258.7</ele>
        <time>2013-11-15T09:29:51Z</time>
      </trkpt>
      <trkpt lat="43.86366" lon="5.24001">
        <ele>258.3</ele>
        <time>2013-11-15T09:30:12Z</time>
      </trkpt>
      <trkpt lat="43.86366" lon="5.24">
        <ele>258.3</ele>
        <time>2013-11-15T09:30:31Z</time>
      </trkpt>
      <trkpt lat="43.86367" lon="5.24003">
        <ele>258.3</ele>
        <time>2013-11-15T09:30:44Z</time>
      </trkpt>
      <trkpt lat="43.8637" lon="5.24003">
        <ele>258.3</ele>
        <time>2013-11-15T09:30:47Z</time>
      </trkpt>
      <trkpt lat="43.86373" lon="5.23997">
        <ele>258.3</ele>
        <time>2013-11-15T09:30:52Z</time>
      </trkpt>
      <trkpt lat="43.86375" lon="5.23988">
        <ele>258.3</ele>
        <time>2013-11-15T09:31:06Z</time>
      </trkpt>
      <trkpt lat="43.86375" lon="5.23989">
        <ele>258.3</ele>
        <time>2013-11-15T09:31:22Z</time>
      </trkpt>
      <trkpt lat="43.86375" lon="5.2399">
        <ele>258.3</ele>
        <time>2013-11-15T09:31:41Z</time>
      </trkpt>
      <trkpt lat="43.86375" lon="5.23991">
        <ele>257.8</ele>
        <time>2013-11-15T09:32:03Z</time>
      </trkpt>
      <trkpt lat="43.86375" lon="5.23991">
        <ele>258.3</ele>
        <time>2013-11-15T09:32:28Z</time>
      </trkpt>
      <trkpt lat="43.86374" lon="5.23992">
        <ele>257.8</ele>
        <time>2013-11-15T09:32:50Z</time>
      </trkpt>
      <trkpt lat="43.86375" lon="5.23992">
        <ele>258.3</ele>
        <time>2013-11-15T09:33:22Z</time>
      </trkpt>
      <trkpt lat="43.86374" lon="5.2399">
        <ele>258.3</ele>
        <time>2013-11-15T09:33:45Z</time>
      </trkpt>
      <trkpt lat="43.86374" lon="5.23991">
        <ele>257.8</ele>
        <time>2013-11-15T09:34:03Z</time>
      </trkpt>
      <trkpt lat="43.86374" lon="5.2399">
        <ele>258.3</ele>
        <time>2013-11-15T09:34:32Z</time>
      </trkpt>
      <trkpt lat="43.86373" lon="5.2399">
        <ele>257.8</ele>
        <time>2013-11-15T09:34:54Z</time>
      </trkpt>
      <trkpt lat="43.86373" lon="5.23993">
        <ele>257.8</ele>
        <time>2013-11-15T09:35:01Z</time>
      </trkpt>
      <trkpt lat="43.86371" lon="5.23996">
        <ele>258.3</ele>
        <time>2013-11-15T09:35:04Z</time>
      </trkpt>
      <trkpt lat="43.86368" lon="5.24005">
        <ele>258.3</ele>
        <time>2013-11-15T09:35:14Z</time>
      </trkpt>
      <trkpt lat="43.86372" lon="5.23999">
        <ele>258.3</ele>
        <time>2013-11-15T09:35:19Z</time>
      </trkpt>
      <trkpt lat="43.86373" lon="5.23994">
        <ele>257.8</ele>
        <time>2013-11-15T09:35:23Z</time>
      </trkpt>
      <trkpt lat="43.86375" lon="5.23994">
        <ele>257.8</ele>
        <time>2013-11-15T09:35:33Z</time>
      </trkpt>
      <trkpt lat="43.86375" lon="5.23993">
        <ele>257.3</ele>
        <time>2013-11-15T09:35:53Z</time>
      </trkpt>
      <trkpt lat="43.86375" lon="5.23991">
        <ele>257.3</ele>
        <time>2013-11-15T09:36:19Z</time>
      </trkpt>
      <trkpt lat="43.86375" lon="5.23988">
        <ele>257.3</ele>
        <time>2013-11-15T09:36:34Z</time>
      </trkpt>
      <trkpt lat="43.86374" lon="5.23985">
        <ele>257.8</ele>
        <time>2013-11-15T09:36:49Z</time>
      </trkpt>
      <trkpt lat="43.86374" lon="5.23984">
        <ele>257.3</ele>
        <time>2013-11-15T09:37:05Z</time>
      </trkpt>
      <trkpt lat="43.86374" lon="5.23984">
        <ele>256.8</ele>
        <time>2013-11-15T09:37:26Z</time>
      </trkpt>
      <trkpt lat="43.86374" lon="5.23983">
        <ele>256.8</ele>
        <time>2013-11-15T09:37:47Z</time>
      </trkpt>
      <trkpt lat="43.86371" lon="5.23983">
        <ele>256.3</ele>
        <time>2013-11-15T09:37:59Z</time>
      </trkpt>
      <trkpt lat="43.86366" lon="5.23979">
        <ele>256.3</ele>
        <time>2013-11-15T09:38:09Z</time>
      </trkpt>
      <trkpt lat="43.86362" lon="5.23978">
        <ele>255.9</ele>
        <time>2013-11-15T09:38:13Z</time>
      </trkpt>
      <trkpt lat="43.86355" lon="5.23972">
        <ele>255.4</ele>
        <time>2013-11-15T09:38:23Z</time>
      </trkpt>
      <trkpt lat="43.86354" lon="5.2397">
        <ele>254.9</ele>
        <time>2013-11-15T09:38:26Z</time>
      </trkpt>
      <trkpt lat="43.86345" lon="5.23959">
        <ele>254.9</ele>
        <time>2013-11-15T09:38:37Z</time>
      </trkpt>
      <trkpt lat="43.86337" lon="5.23952">
        <ele>255.4</ele>
        <time>2013-11-15T09:38:49Z</time>
      </trkpt>
      <trkpt lat="43.8633" lon="5.23943">
        <ele>255.4</ele>
        <time>2013-11-15T09:38:56Z</time>
      </trkpt>
      <trkpt lat="43.86326" lon="5.23937">
        <ele>254.9</ele>
        <time>2013-11-15T09:39:02Z</time>
      </trkpt>
      <trkpt lat="43.86321" lon="5.23929">
        <ele>254.9</ele>
        <time>2013-11-15T09:39:07Z</time>
      </trkpt>
      <trkpt lat="43.86319" lon="5.23927">
        <ele>254.9</ele>
        <time>2013-11-15T09:39:09Z</time>
      </trkpt>
      <trkpt lat="43.86318" lon="5.23922">
        <ele>254.9</ele>
        <time>2013-11-15T09:39:15Z</time>
      </trkpt>
      <trkpt lat="43.86316" lon="5.23919">
        <ele>254.4</ele>
        <time>2013-11-15T09:39:17Z</time>
      </trkpt>
      <trkpt lat="43.86307" lon="5.23903">
        <ele>254.4</ele>
        <time>2013-11-15T09:39:30Z</time>
      </trkpt>
      <trkpt lat="43.86302" lon="5.23894">
        <ele>253.9</ele>
        <time>2013-11-15T09:39:45Z</time>
      </trkpt>
      <trkpt lat="43.86298" lon="5.23889">
        <ele>253</ele>
        <time>2013-11-15T09:39:50Z</time>
      </trkpt>
      <trkpt lat="43.86293" lon="5.2388">
        <ele>252.5</ele>
        <time>2013-11-15T09:39:57Z</time>
      </trkpt>
      <trkpt lat="43.86288" lon="5.23869">
        <ele>252</ele>
        <time>2013-11-15T09:40:05Z</time>
      </trkpt>
      <trkpt lat="43.86281" lon="5.23857">
        <ele>250.1</ele>
        <time>2013-11-15T09:40:19Z</time>
      </trkpt>
      <trkpt lat="43.86274" lon="5.23847">
        <ele>248.6</ele>
        <time>2013-11-15T09:40:31Z</time>
      </trkpt>
      <trkpt lat="43.86264" lon="5.23837">
        <ele>247.7</ele>
        <time>2013-11-15T09:40:44Z</time>
      </trkpt>
      <trkpt lat="43.86259" lon="5.2383">
        <ele>246.2</ele>
        <time>2013-11-15T09:40:56Z</time>
      </trkpt>
      <trkpt lat="43.86255" lon="5.2382">
        <ele>244.3</ele>
        <time>2013-11-15T09:41:09Z</time>
      </trkpt>
      <trkpt lat="43.86249" lon="5.23805">
        <ele>242.9</ele>
        <time>2013-11-15T09:41:21Z</time>
      </trkpt>
      <trkpt lat="43.86245" lon="5.23797">
        <ele>241</ele>
        <time>2013-11-15T09:41:35Z</time>
      </trkpt>
      <trkpt lat="43.86243" lon="5.23796">
        <ele>240</ele>
        <time>2013-11-15T09:41:40Z</time>
      </trkpt>
      <trkpt lat="43.86236" lon="5.23784">
        <ele>238.1</ele>
        <time>2013-11-15T09:41:52Z</time>
      </trkpt>
      <trkpt lat="43.86229" lon="5.23768">
        <ele>236.6</ele>
        <time>2013-11-15T09:42:04Z</time>
      </trkpt>
      <trkpt lat="43.86219" lon="5.23754">
        <ele>235.2</ele>
        <time>2013-11-15T09:42:20Z</time>
      </trkpt>
      <trkpt lat="43.86213" lon="5.2374">
        <ele>233.7</ele>
        <time>2013-11-15T09:42:32Z</time>
      </trkpt>
      <trkpt lat="43.86211" lon="5.23736">
        <ele>233.3</ele>
        <time>2013-11-15T09:42:36Z</time>
      </trkpt>
      <trkpt lat="43.86205" lon="5.23721">
        <ele>232.3</ele>
        <time>2013-11-15T09:42:47Z</time>
      </trkpt>
      <trkpt lat="43.86204" lon="5.23721">
        <ele>232.3</ele>
        <time>2013-11-15T09:42:48Z</time>
      </trkpt>
      <trkpt lat="43.86197" lon="5.23708">
        <ele>231.8</ele>
        <time>2013-11-15T09:43:01Z</time>
      </trkpt>
      <trkpt lat="43.86198" lon="5.23701">
        <ele>231.8</ele>
        <time>2013-11-15T09:43:13Z</time>
      </trkpt>
      <trkpt lat="43.86198" lon="5.237">
        <ele>231.8</ele>
        <time>2013-11-15T09:43:14Z</time>
      </trkpt>
      <trkpt lat="43.86198" lon="5.23701">
        <ele>231.3</ele>
        <time>2013-11-15T09:43:16Z</time>
      </trkpt>
      <trkpt lat="43.86196" lon="5.23705">
        <ele>231.8</ele>
        <time>2013-11-15T09:43:27Z</time>
      </trkpt>
      <trkpt lat="43.86194" lon="5.23705">
        <ele>231.3</ele>
        <time>2013-11-15T09:43:43Z</time>
      </trkpt>
      <trkpt lat="43.86195" lon="5.23708">
        <ele>231.3</ele>
        <time>2013-11-15T09:43:55Z</time>
      </trkpt>
      <trkpt lat="43.86194" lon="5.23707">
        <ele>231.3</ele>
        <time>2013-11-15T09:44:11Z</time>
      </trkpt>
      <trkpt lat="43.86188" lon="5.23699">
        <ele>230.9</ele>
        <time>2013-11-15T09:44:23Z</time>
      </trkpt>
      <trkpt lat="43.86186" lon="5.23696">
        <ele>230.9</ele>
        <time>2013-11-15T09:44:26Z</time>
      </trkpt>
      <trkpt lat="43.86176" lon="5.23692">
        <ele>229.9</ele>
        <time>2013-11-15T09:44:38Z</time>
      </trkpt>
      <trkpt lat="43.86167" lon="5.23684">
        <ele>228.5</ele>
        <time>2013-11-15T09:44:51Z</time>
      </trkpt>
      <trkpt lat="43.86158" lon="5.2368">
        <ele>227</ele>
        <time>2013-11-15T09:45:04Z</time>
      </trkpt>
      <trkpt lat="43.86149" lon="5.23674">
        <ele>226.1</ele>
        <time>2013-11-15T09:45:16Z</time>
      </trkpt>
      <trkpt lat="43.86145" lon="5.2367">
        <ele>225.1</ele>
        <time>2013-11-15T09:45:34Z</time>
      </trkpt>
      <trkpt lat="43.86142" lon="5.23673">
        <ele>224.1</ele>
        <time>2013-11-15T09:45:46Z</time>
      </trkpt>
      <trkpt lat="43.86137" lon="5.23674">
        <ele>223.6</ele>
        <time>2013-11-15T09:45:59Z</time>
      </trkpt>
      <trkpt lat="43.86135" lon="5.23682">
        <ele>223.6</ele>
        <time>2013-11-15T09:46:17Z</time>
      </trkpt>
      <trkpt lat="43.86135" lon="5.23684">
        <ele>223.2</ele>
        <time>2013-11-15T09:46:27Z</time>
      </trkpt>
      <trkpt lat="43.86136" lon="5.2369">
        <ele>222.2</ele>
        <time>2013-11-15T09:46:41Z</time>
      </trkpt>
      <trkpt lat="43.86136" lon="5.23691">
        <ele>222.7</ele>
        <time>2013-11-15T09:46:58Z</time>
      </trkpt>
      <trkpt lat="43.86136" lon="5.23693">
        <ele>222.7</ele>
        <time>2013-11-15T09:47:12Z</time>
      </trkpt>
      <trkpt lat="43.86133" lon="5.23694">
        <ele>222.2</ele>
        <time>2013-11-15T09:47:25Z</time>
      </trkpt>
      <trkpt lat="43.86133" lon="5.23694">
        <ele>222.2</ele>
        <time>2013-11-15T09:47:43Z</time>
      </trkpt>
      <trkpt lat="43.86133" lon="5.23695">
        <ele>222.2</ele>
        <time>2013-11-15T09:47:57Z</time>
      </trkpt>
      <trkpt lat="43.86136" lon="5.23702">
        <ele>222.2</ele>
        <time>2013-11-15T09:48:10Z</time>
      </trkpt>
      <trkpt lat="43.86138" lon="5.23707">
        <ele>222.2</ele>
        <time>2013-11-15T09:48:21Z</time>
      </trkpt>
      <trkpt lat="43.86139" lon="5.23707">
        <ele>222.2</ele>
        <time>2013-11-15T09:48:44Z</time>
      </trkpt>
      <trkpt lat="43.86138" lon="5.23706">
        <ele>222.2</ele>
        <time>2013-11-15T09:49:04Z</time>
      </trkpt>
      <trkpt lat="43.86138" lon="5.23705">
        <ele>222.2</ele>
        <time>2013-11-15T09:49:28Z</time>
      </trkpt>
      <trkpt lat="43.8614" lon="5.23706">
        <ele>222.2</ele>
        <time>2013-11-15T09:49:48Z</time>
      </trkpt>
      <trkpt lat="43.86145" lon="5.23717">
        <ele>222.2</ele>
        <time>2013-11-15T09:49:59Z</time>
      </trkpt>
      <trkpt lat="43.86147" lon="5.23722">
        <ele>222.2</ele>
        <time>2013-11-15T09:50:17Z</time>
      </trkpt>
      <trkpt lat="43.86148" lon="5.23724">
        <ele>222.7</ele>
        <time>2013-11-15T09:50:23Z</time>
      </trkpt>
      <trkpt lat="43.86148" lon="5.23727">
        <ele>222.2</ele>
        <time>2013-11-15T09:50:25Z</time>
      </trkpt>
      <trkpt lat="43.86149" lon="5.23741">
        <ele>222.2</ele>
        <time>2013-11-15T09:50:38Z</time>
      </trkpt>
      <trkpt lat="43.86147" lon="5.23748">
        <ele>221.2</ele>
        <time>2013-11-15T09:50:52Z</time>
      </trkpt>
      <trkpt lat="43.86141" lon="5.23758">
        <ele>220.8</ele>
        <time>2013-11-15T09:51:04Z</time>
      </trkpt>
      <trkpt lat="43.86139" lon="5.23763">
        <ele>220.8</ele>
        <time>2013-11-15T09:51:19Z</time>
      </trkpt>
      <trkpt lat="43.86141" lon="5.23763">
        <ele>221.2</ele>
        <time>2013-11-15T09:51:33Z</time>
      </trkpt>
      <trkpt lat="43.86137" lon="5.23767">
        <ele>220.8</ele>
        <time>2013-11-15T09:51:49Z</time>
      </trkpt>
      <trkpt lat="43.86133" lon="5.23772">
        <ele>219.8</ele>
        <time>2013-11-15T09:52:00Z</time>
      </trkpt>
      <trkpt lat="43.8613" lon="5.23774">
        <ele>218.8</ele>
        <time>2013-11-15T09:52:12Z</time>
      </trkpt>
      <trkpt lat="43.86128" lon="5.23773">
        <ele>217.9</ele>
        <time>2013-11-15T09:52:28Z</time>
      </trkpt>
      <trkpt lat="43.86125" lon="5.23769">
        <ele>216.4</ele>
        <time>2013-11-15T09:52:40Z</time>
      </trkpt>
      <trkpt lat="43.86124" lon="5.23768">
        <ele>215</ele>
        <time>2013-11-15T09:52:51Z</time>
      </trkpt>
      <trkpt lat="43.86122" lon="5.23777">
        <ele>215</ele>
        <time>2013-11-15T09:53:01Z</time>
      </trkpt>
      <trkpt lat="43.86121" lon="5.23779">
        <ele>215</ele>
        <time>2013-11-15T09:53:03Z</time>
      </trkpt>
      <trkpt lat="43.86116" lon="5.23789">
        <ele>215.5</ele>
        <time>2013-11-15T09:53:14Z</time>
      </trkpt>
      <trkpt lat="43.8611" lon="5.23802">
        <ele>216</ele>
        <time>2013-11-15T09:53:25Z</time>
      </trkpt>
      <trkpt lat="43.86108" lon="5.2381">
        <ele>216.4</ele>
        <time>2013-11-15T09:53:30Z</time>
      </trkpt>
      <trkpt lat="43.86106" lon="5.23815">
        <ele>216.4</ele>
        <time>2013-11-15T09:53:35Z</time>
      </trkpt>
      <trkpt lat="43.86102" lon="5.23821">
        <ele>216.4</ele>
        <time>2013-11-15T09:53:47Z</time>
      </trkpt>
      <trkpt lat="43.861" lon="5.23822">
        <ele>216</ele>
        <time>2013-11-15T09:54:15Z</time>
      </trkpt>
      <trkpt lat="43.86101" lon="5.23824">
        <ele>215.5</ele>
        <time>2013-11-15T09:54:38Z</time>
      </trkpt>
      <trkpt lat="43.86102" lon="5.23823">
        <ele>215.5</ele>
        <time>2013-11-15T09:54:56Z</time>
      </trkpt>
      <trkpt lat="43.86105" lon="5.23813">
        <ele>215.5</ele>
        <time>2013-11-15T09:55:13Z</time>
      </trkpt>
      <trkpt lat="43.86109" lon="5.23809">
        <ele>215.5</ele>
        <time>2013-11-15T09:55:23Z</time>
      </trkpt>
      <trkpt lat="43.86112" lon="5.23805">
        <ele>215</ele>
        <time>2013-11-15T09:55:28Z</time>
      </trkpt>
      <trkpt lat="43.86115" lon="5.23802">
        <ele>215</ele>
        <time>2013-11-15T09:55:32Z</time>
      </trkpt>
      <trkpt lat="43.86119" lon="5.23795">
        <ele>215.5</ele>
        <time>2013-11-15T09:55:40Z</time>
      </trkpt>
      <trkpt lat="43.86124" lon="5.2378">
        <ele>215</ele>
        <time>2013-11-15T09:55:52Z</time>
      </trkpt>
      <trkpt lat="43.86124" lon="5.23778">
        <ele>215</ele>
        <time>2013-11-15T09:55:54Z</time>
      </trkpt>
      <trkpt lat="43.86126" lon="5.23765">
        <ele>214.5</ele>
        <time>2013-11-15T09:56:03Z</time>
      </trkpt>
      <trkpt lat="43.86126" lon="5.23753">
        <ele>214.5</ele>
        <time>2013-11-15T09:56:14Z</time>
      </trkpt>
      <trkpt lat="43.86126" lon="5.23746">
        <ele>214</ele>
        <time>2013-11-15T09:56:20Z</time>
      </trkpt>
      <trkpt lat="43.86125" lon="5.23737">
        <ele>214</ele>
        <time>2013-11-15T09:56:31Z</time>
      </trkpt>
      <trkpt lat="43.86124" lon="5.23729">
        <ele>213.6</ele>
        <time>2013-11-15T09:56:41Z</time>
      </trkpt>
      <trkpt lat="43.86124" lon="5.23729">
        <ele>213.1</ele>
        <time>2013-11-15T09:57:04Z</time>
      </trkpt>
      <trkpt lat="43.86123" lon="5.23728">
        <ele>213.6</ele>
        <time>2013-11-15T09:57:21Z</time>
      </trkpt>
      <trkpt lat="43.86123" lon="5.23728">
        <ele>213.6</ele>
        <time>2013-11-15T09:57:36Z</time>
      </trkpt>
      <trkpt lat="43.86122" lon="5.23725">
        <ele>213.6</ele>
        <time>2013-11-15T09:57:52Z</time>
      </trkpt>
      <trkpt lat="43.86117" lon="5.23719">
        <ele>212.6</ele>
        <time>2013-11-15T09:58:05Z</time>
      </trkpt>
      <trkpt lat="43.86114" lon="5.23719">
        <ele>210.2</ele>
        <time>2013-11-15T09:58:20Z</time>
      </trkpt>
      <trkpt lat="43.8611" lon="5.23724">
        <ele>207.8</ele>
        <time>2013-11-15T09:58:32Z</time>
      </trkpt>
      <trkpt lat="43.86107" lon="5.23726">
        <ele>207.8</ele>
        <time>2013-11-15T09:58:46Z</time>
      </trkpt>
      <trkpt lat="43.86107" lon="5.23723">
        <ele>207.8</ele>
        <time>2013-11-15T09:58:59Z</time>
      </trkpt>
      <trkpt lat="43.86107" lon="5.23723">
        <ele>207.8</ele>
        <time>2013-11-15T09:59:14Z</time>
      </trkpt>
      <trkpt lat="43.86107" lon="5.23724">
        <ele>207.3</ele>
        <time>2013-11-15T09:59:37Z</time>
      </trkpt>
      <trkpt lat="43.86107" lon="5.23723">
        <ele>208.3</ele>
        <time>2013-11-15T09:59:59Z</time>
      </trkpt>
      <trkpt lat="43.86109" lon="5.23726">
        <ele>208.7</ele>
        <time>2013-11-15T10:00:14Z</time>
      </trkpt>
      <trkpt lat="43.86109" lon="5.23726">
        <ele>207.8</ele>
        <time>2013-11-15T10:00:28Z</time>
      </trkpt>
      <trkpt lat="43.86107" lon="5.23726">
        <ele>207.8</ele>
        <time>2013-11-15T10:00:55Z</time>
      </trkpt>
      <trkpt lat="43.86108" lon="5.2373">
        <ele>208.3</ele>
        <time>2013-11-15T10:01:11Z</time>
      </trkpt>
      <trkpt lat="43.86108" lon="5.23733">
        <ele>206.8</ele>
        <time>2013-11-15T10:01:26Z</time>
      </trkpt>
      <trkpt lat="43.86106" lon="5.23736">
        <ele>205.4</ele>
        <time>2013-11-15T10:01:36Z</time>
      </trkpt>
      <trkpt lat="43.86102" lon="5.23744">
        <ele>203.5</ele>
        <time>2013-11-15T10:01:48Z</time>
      </trkpt>
      <trkpt lat="43.86096" lon="5.23752">
        <ele>201.5</ele>
        <time>2013-11-15T10:02:00Z</time>
      </trkpt>
      <trkpt lat="43.86093" lon="5.23761">
        <ele>201.5</ele>
        <time>2013-11-15T10:02:13Z</time>
      </trkpt>
      <trkpt lat="43.86087" lon="5.2377">
        <ele>200.1</ele>
        <time>2013-11-15T10:02:25Z</time>
      </trkpt>
      <trkpt lat="43.86083" lon="5.23777">
        <ele>200.1</ele>
        <time>2013-11-15T10:02:37Z</time>
      </trkpt>
      <trkpt lat="43.86087" lon="5.23774">
        <ele>200.1</ele>
        <time>2013-11-15T10:02:47Z</time>
      </trkpt>
      <trkpt lat="43.86084" lon="5.23774">
        <ele>200.1</ele>
        <time>2013-11-15T10:02:57Z</time>
      </trkpt>
      <trkpt lat="43.86086" lon="5.23773">
        <ele>200.1</ele>
        <time>2013-11-15T10:03:10Z</time>
      </trkpt>
      <trkpt lat="43.86087" lon="5.23773">
        <ele>199.6</ele>
        <time>2013-11-15T10:03:11Z</time>
      </trkpt>
      <trkpt lat="43.86093" lon="5.23767">
        <ele>201.1</ele>
        <time>2013-11-15T10:03:20Z</time>
      </trkpt>
      <trkpt lat="43.86097" lon="5.23761">
        <ele>201.5</ele>
        <time>2013-11-15T10:03:31Z</time>
      </trkpt>
      <trkpt lat="43.86096" lon="5.23753">
        <ele>202.5</ele>
        <time>2013-11-15T10:03:44Z</time>
      </trkpt>
      <trkpt lat="43.86099" lon="5.23745">
        <ele>203.5</ele>
        <time>2013-11-15T10:03:54Z</time>
      </trkpt>
      <trkpt lat="43.86102" lon="5.2374">
        <ele>204.9</ele>
        <time>2013-11-15T10:04:04Z</time>
      </trkpt>
      <trkpt lat="43.86105" lon="5.23733">
        <ele>205.9</ele>
        <time>2013-11-15T10:04:11Z</time>
      </trkpt>
      <trkpt lat="43.86111" lon="5.23725">
        <ele>208.7</ele>
        <time>2013-11-15T10:04:24Z</time>
      </trkpt>
      <trkpt lat="43.86115" lon="5.2372">
        <ele>211.2</ele>
        <time>2013-11-15T10:04:35Z</time>
      </trkpt>
      <trkpt lat="43.86119" lon="5.23714">
        <ele>213.6</ele>
        <time>2013-11-15T10:04:47Z</time>
      </trkpt>
      <trkpt lat="43.86122" lon="5.2371">
        <ele>215</ele>
        <time>2013-11-15T10:04:58Z</time>
      </trkpt>
      <trkpt lat="43.86125" lon="5.23701">
        <ele>217.4</ele>
        <time>2013-11-15T10:05:13Z</time>
      </trkpt>
      <trkpt lat="43.86129" lon="5.23694">
        <ele>218.8</ele>
        <time>2013-11-15T10:05:24Z</time>
      </trkpt>
      <trkpt lat="43.86134" lon="5.23684">
        <ele>221.2</ele>
        <time>2013-11-15T10:05:36Z</time>
      </trkpt>
      <trkpt lat="43.86141" lon="5.23676">
        <ele>222.2</ele>
        <time>2013-11-15T10:05:46Z</time>
      </trkpt>
      <trkpt lat="43.86143" lon="5.23675">
        <ele>222.7</ele>
        <time>2013-11-15T10:05:58Z</time>
      </trkpt>
      <trkpt lat="43.8614" lon="5.23668">
        <ele>222.7</ele>
        <time>2013-11-15T10:06:13Z</time>
      </trkpt>
      <trkpt lat="43.8614" lon="5.23668">
        <ele>222.2</ele>
        <time>2013-11-15T10:06:27Z</time>
      </trkpt>
      <trkpt lat="43.86142" lon="5.23669">
        <ele>222.2</ele>
        <time>2013-11-15T10:06:30Z</time>
      </trkpt>
      <trkpt lat="43.86146" lon="5.23672">
        <ele>222.7</ele>
        <time>2013-11-15T10:06:40Z</time>
      </trkpt>
      <trkpt lat="43.86149" lon="5.23675">
        <ele>223.2</ele>
        <time>2013-11-15T10:06:46Z</time>
      </trkpt>
      <trkpt lat="43.86154" lon="5.23678">
        <ele>223.6</ele>
        <time>2013-11-15T10:06:51Z</time>
      </trkpt>
      <trkpt lat="43.8616" lon="5.23683">
        <ele>224.6</ele>
        <time>2013-11-15T10:06:59Z</time>
      </trkpt>
      <trkpt lat="43.86162" lon="5.23684">
        <ele>224.6</ele>
        <time>2013-11-15T10:07:04Z</time>
      </trkpt>
      <trkpt lat="43.86167" lon="5.23687">
        <ele>225.1</ele>
        <time>2013-11-15T10:07:08Z</time>
      </trkpt>
      <trkpt lat="43.86175" lon="5.23692">
        <ele>226.5</ele>
        <time>2013-11-15T10:07:18Z</time>
      </trkpt>
      <trkpt lat="43.86183" lon="5.23697">
        <ele>227.5</ele>
        <time>2013-11-15T10:07:29Z</time>
      </trkpt>
      <trkpt lat="43.86187" lon="5.23701">
        <ele>228</ele>
        <time>2013-11-15T10:07:34Z</time>
      </trkpt>
      <trkpt lat="43.86193" lon="5.23708">
        <ele>228</ele>
        <time>2013-11-15T10:07:43Z</time>
      </trkpt>
      <trkpt lat="43.86198" lon="5.23713">
        <ele>228.5</ele>
        <time>2013-11-15T10:07:49Z</time>
      </trkpt>
      <trkpt lat="43.86201" lon="5.23717">
        <ele>228.9</ele>
        <time>2013-11-15T10:07:53Z</time>
      </trkpt>
      <trkpt lat="43.86204" lon="5.23725">
        <ele>229.4</ele>
        <time>2013-11-15T10:08:01Z</time>
      </trkpt>
      <trkpt lat="43.86205" lon="5.23727">
        <ele>229.4</ele>
        <time>2013-11-15T10:08:03Z</time>
      </trkpt>
      <trkpt lat="43.86212" lon="5.2374">
        <ele>230.4</ele>
        <time>2013-11-15T10:08:16Z</time>
      </trkpt>
      <trkpt lat="43.86216" lon="5.2375">
        <ele>231.3</ele>
        <time>2013-11-15T10:08:27Z</time>
      </trkpt>
      <trkpt lat="43.86221" lon="5.23759">
        <ele>232.3</ele>
        <time>2013-11-15T10:08:35Z</time>
      </trkpt>
      <trkpt lat="43.86228" lon="5.23771">
        <ele>233.7</ele>
        <time>2013-11-15T10:08:48Z</time>
      </trkpt>
      <trkpt lat="43.8623" lon="5.23774">
        <ele>234.2</ele>
        <time>2013-11-15T10:08:53Z</time>
      </trkpt>
      <trkpt lat="43.86235" lon="5.23781">
        <ele>235.7</ele>
        <time>2013-11-15T10:09:02Z</time>
      </trkpt>
      <trkpt lat="43.86241" lon="5.23792">
        <ele>236.6</ele>
        <time>2013-11-15T10:09:11Z</time>
      </trkpt>
      <trkpt lat="43.86247" lon="5.23803">
        <ele>238.1</ele>
        <time>2013-11-15T10:09:23Z</time>
      </trkpt>
      <trkpt lat="43.8625" lon="5.23809">
        <ele>239.5</ele>
        <time>2013-11-15T10:09:36Z</time>
      </trkpt>
      <trkpt lat="43.86251" lon="5.23811">
        <ele>239.5</ele>
        <time>2013-11-15T10:09:44Z</time>
      </trkpt>
      <trkpt lat="43.86254" lon="5.23824">
        <ele>241.4</ele>
        <time>2013-11-15T10:09:57Z</time>
      </trkpt>
      <trkpt lat="43.86255" lon="5.23827">
        <ele>242.4</ele>
        <time>2013-11-15T10:10:00Z</time>
      </trkpt>
      <trkpt lat="43.86262" lon="5.23839">
        <ele>243.8</ele>
        <time>2013-11-15T10:10:12Z</time>
      </trkpt>
      <trkpt lat="43.86264" lon="5.23842">
        <ele>243.8</ele>
        <time>2013-11-15T10:10:15Z</time>
      </trkpt>
      <trkpt lat="43.86266" lon="5.23843">
        <ele>244.3</ele>
        <time>2013-11-15T10:10:17Z</time>
      </trkpt>
      <trkpt lat="43.86274" lon="5.23853">
        <ele>245.3</ele>
        <time>2013-11-15T10:10:31Z</time>
      </trkpt>
      <trkpt lat="43.8628" lon="5.23866">
        <ele>246.7</ele>
        <time>2013-11-15T10:10:45Z</time>
      </trkpt>
      <trkpt lat="43.86285" lon="5.23874">
        <ele>247.7</ele>
        <time>2013-11-15T10:10:53Z</time>
      </trkpt>
      <trkpt lat="43.8629" lon="5.23883">
        <ele>249.1</ele>
        <time>2013-11-15T10:11:05Z</time>
      </trkpt>
      <trkpt lat="43.86292" lon="5.23885">
        <ele>249.1</ele>
        <time>2013-11-15T10:11:07Z</time>
      </trkpt>
      <trkpt lat="43.86295" lon="5.23888">
        <ele>248.6</ele>
        <time>2013-11-15T10:11:10Z</time>
      </trkpt>
      <trkpt lat="43.86306" lon="5.23902">
        <ele>250.1</ele>
        <time>2013-11-15T10:11:23Z</time>
      </trkpt>
      <trkpt lat="43.86315" lon="5.23916">
        <ele>250.6</ele>
        <time>2013-11-15T10:11:37Z</time>
      </trkpt>
      <trkpt lat="43.86317" lon="5.23917">
        <ele>250.1</ele>
        <time>2013-11-15T10:11:47Z</time>
      </trkpt>
      <trkpt lat="43.86317" lon="5.23917">
        <ele>250.6</ele>
        <time>2013-11-15T10:12:05Z</time>
      </trkpt>
      <trkpt lat="43.86317" lon="5.23917">
        <ele>250.6</ele>
        <time>2013-11-15T10:12:25Z</time>
      </trkpt>
      <trkpt lat="43.86317" lon="5.23916">
        <ele>250.6</ele>
        <time>2013-11-15T10:12:46Z</time>
      </trkpt>
      <trkpt lat="43.86319" lon="5.23916">
        <ele>250.1</ele>
        <time>2013-11-15T10:13:09Z</time>
      </trkpt>
      <trkpt lat="43.86322" lon="5.23909">
        <ele>248.2</ele>
        <time>2013-11-15T10:13:21Z</time>
      </trkpt>
      <trkpt lat="43.86324" lon="5.23907">
        <ele>246.2</ele>
        <time>2013-11-15T10:13:32Z</time>
      </trkpt>
      <trkpt lat="43.86325" lon="5.23903">
        <ele>244.8</ele>
        <time>2013-11-15T10:13:44Z</time>
      </trkpt>
      <trkpt lat="43.86325" lon="5.23898">
        <ele>241.9</ele>
        <time>2013-11-15T10:14:00Z</time>
      </trkpt>
      <trkpt lat="43.86325" lon="5.23875">
        <ele>239.5</ele>
        <time>2013-11-15T10:14:15Z</time>
      </trkpt>
      <trkpt lat="43.86325" lon="5.23874">
        <ele>239</ele>
        <time>2013-11-15T10:14:18Z</time>
      </trkpt>
      <trkpt lat="43.86326" lon="5.23864">
        <ele>238.1</ele>
        <time>2013-11-15T10:14:28Z</time>
      </trkpt>
      <trkpt lat="43.86322" lon="5.23856">
        <ele>235.7</ele>
        <time>2013-11-15T10:14:39Z</time>
      </trkpt>
      <trkpt lat="43.8632" lon="5.23848">
        <ele>233.7</ele>
        <time>2013-11-15T10:14:50Z</time>
      </trkpt>
      <trkpt lat="43.86318" lon="5.23844">
        <ele>231.8</ele>
        <time>2013-11-15T10:15:03Z</time>
      </trkpt>
      <trkpt lat="43.86318" lon="5.23838">
        <ele>229.4</ele>
        <time>2013-11-15T10:15:16Z</time>
      </trkpt>
      <trkpt lat="43.86316" lon="5.23832">
        <ele>227.5</ele>
        <time>2013-11-15T10:15:29Z</time>
      </trkpt>
      <trkpt lat="43.86316" lon="5.23822">
        <ele>226.1</ele>
        <time>2013-11-15T10:15:41Z</time>
      </trkpt>
      <trkpt lat="43.86314" lon="5.23812">
        <ele>224.1</ele>
        <time>2013-11-15T10:15:55Z</time>
      </trkpt>
      <trkpt lat="43.86312" lon="5.23803">
        <ele>222.7</ele>
        <time>2013-11-15T10:16:07Z</time>
      </trkpt>
      <trkpt lat="43.86309" lon="5.23794">
        <ele>221.2</ele>
        <time>2013-11-15T10:16:20Z</time>
      </trkpt>
      <trkpt lat="43.86306" lon="5.23785">
        <ele>220.3</ele>
        <time>2013-11-15T10:16:30Z</time>
      </trkpt>
      <trkpt lat="43.86306" lon="5.23777">
        <ele>218.8</ele>
        <time>2013-11-15T10:16:42Z</time>
      </trkpt>
      <trkpt lat="43.86305" lon="5.23771">
        <ele>217.4</ele>
        <time>2013-11-15T10:16:52Z</time>
      </trkpt>
      <trkpt lat="43.86302" lon="5.2376">
        <ele>216</ele>
        <time>2013-11-15T10:17:04Z</time>
      </trkpt>
      <trkpt lat="43.86299" lon="5.23746">
        <ele>215</ele>
        <time>2013-11-15T10:17:16Z</time>
      </trkpt>
      <trkpt lat="43.86298" lon="5.23732">
        <ele>214</ele>
        <time>2013-11-15T10:17:29Z</time>
      </trkpt>
      <trkpt lat="43.86297" lon="5.23726">
        <ele>213.1</ele>
        <time>2013-11-15T10:17:39Z</time>
      </trkpt>
      <trkpt lat="43.86295" lon="5.23721">
        <ele>211.6</ele>
        <time>2013-11-15T10:17:51Z</time>
      </trkpt>
      <trkpt lat="43.86293" lon="5.23714">
        <ele>211.2</ele>
        <time>2013-11-15T10:18:03Z</time>
      </trkpt>
      <trkpt lat="43.8629" lon="5.23705">
        <ele>208.7</ele>
        <time>2013-11-15T10:18:18Z</time>
      </trkpt>
      <trkpt lat="43.86289" lon="5.23701">
        <ele>208.3</ele>
        <time>2013-11-15T10:18:34Z</time>
      </trkpt>
      <trkpt lat="43.86288" lon="5.23697">
        <ele>206.8</ele>
        <time>2013-11-15T10:18:53Z</time>
      </trkpt>
      <trkpt lat="43.86289" lon="5.23686">
        <ele>204.4</ele>
        <time>2013-11-15T10:19:09Z</time>
      </trkpt>
      <trkpt lat="43.8629" lon="5.23676">
        <ele>203.5</ele>
        <time>2013-11-15T10:19:21Z</time>
      </trkpt>
      <trkpt lat="43.86292" lon="5.23659">
        <ele>202</ele>
        <time>2013-11-15T10:19:34Z</time>
      </trkpt>
      <trkpt lat="43.86293" lon="5.23642">
        <ele>200.6</ele>
        <time>2013-11-15T10:19:47Z</time>
      </trkpt>
      <trkpt lat="43.86294" lon="5.23633">
        <ele>199.1</ele>
        <time>2013-11-15T10:20:00Z</time>
      </trkpt>
      <trkpt lat="43.86294" lon="5.23625">
        <ele>197.2</ele>
        <time>2013-11-15T10:20:13Z</time>
      </trkpt>
      <trkpt lat="43.86293" lon="5.23613">
        <ele>195.3</ele>
        <time>2013-11-15T10:20:26Z</time>
      </trkpt>
      <trkpt lat="43.86293" lon="5.23608">
        <ele>194.3</ele>
        <time>2013-11-15T10:20:38Z</time>
      </trkpt>
      <trkpt lat="43.86291" lon="5.23604">
        <ele>192.9</ele>
        <time>2013-11-15T10:20:54Z</time>
      </trkpt>
      <trkpt lat="43.86288" lon="5.23601">
        <ele>191.4</ele>
        <time>2013-11-15T10:21:05Z</time>
      </trkpt>
      <trkpt lat="43.86284" lon="5.23593">
        <ele>188.6</ele>
        <time>2013-11-15T10:21:22Z</time>
      </trkpt>
      <trkpt lat="43.8628" lon="5.23589">
        <ele>187.6</ele>
        <time>2013-11-15T10:21:38Z</time>
      </trkpt>
      <trkpt lat="43.86277" lon="5.23574">
        <ele>185.7</ele>
        <time>2013-11-15T10:21:49Z</time>
      </trkpt>
      <trkpt lat="43.86275" lon="5.23567">
        <ele>185.2</ele>
        <time>2013-11-15T10:22:00Z</time>
      </trkpt>
      <trkpt lat="43.86273" lon="5.23562">
        <ele>183.3</ele>
        <time>2013-11-15T10:22:14Z</time>
      </trkpt>
      <trkpt lat="43.86272" lon="5.23558">
        <ele>182.3</ele>
        <time>2013-11-15T10:22:28Z</time>
      </trkpt>
      <trkpt lat="43.8627" lon="5.23549">
        <ele>181.4</ele>
        <time>2013-11-15T10:22:41Z</time>
      </trkpt>
      <trkpt lat="43.86265" lon="5.23533">
        <ele>179.4</ele>
        <time>2013-11-15T10:22:53Z</time>
      </trkpt>
      <trkpt lat="43.86262" lon="5.23526">
        <ele>178</ele>
        <time>2013-11-15T10:23:07Z</time>
      </trkpt>
      <trkpt lat="43.86258" lon="5.23516">
        <ele>176.5</ele>
        <time>2013-11-15T10:23:20Z</time>
      </trkpt>
      <trkpt lat="43.86253" lon="5.23502">
        <ele>175.1</ele>
        <time>2013-11-15T10:23:32Z</time>
      </trkpt>
      <trkpt lat="43.86252" lon="5.23485">
        <ele>172.7</ele>
        <time>2013-11-15T10:23:47Z</time>
      </trkpt>
      <trkpt lat="43.86249" lon="5.23479">
        <ele>171.7</ele>
        <time>2013-11-15T10:24:03Z</time>
      </trkpt>
      <trkpt lat="43.86242" lon="5.23472">
        <ele>170.8</ele>
        <time>2013-11-15T10:24:16Z</time>
      </trkpt>
      <trkpt lat="43.86234" lon="5.23466">
        <ele>169.8</ele>
        <time>2013-11-15T10:24:27Z</time>
      </trkpt>
      <trkpt lat="43.86226" lon="5.23459">
        <ele>169.3</ele>
        <time>2013-11-15T10:24:40Z</time>
      </trkpt>
      <trkpt lat="43.86224" lon="5.23448">
        <ele>169.3</ele>
        <time>2013-11-15T10:24:53Z</time>
      </trkpt>
      <trkpt lat="43.86223" lon="5.23435">
        <ele>167.9</ele>
        <time>2013-11-15T10:25:05Z</time>
      </trkpt>
      <trkpt lat="43.86224" lon="5.23426">
        <ele>167.4</ele>
        <time>2013-11-15T10:25:17Z</time>
      </trkpt>
      <trkpt lat="43.86225" lon="5.23419">
        <ele>166.9</ele>
        <time>2013-11-15T10:25:30Z</time>
      </trkpt>
      <trkpt lat="43.86222" lon="5.23406">
        <ele>166</ele>
        <time>2013-11-15T10:25:42Z</time>
      </trkpt>
      <trkpt lat="43.86222" lon="5.234">
        <ele>164.5</ele>
        <time>2013-11-15T10:25:53Z</time>
      </trkpt>
      <trkpt lat="43.86223" lon="5.23392">
        <ele>163.1</ele>
        <time>2013-11-15T10:26:05Z</time>
      </trkpt>
      <trkpt lat="43.86223" lon="5.23385">
        <ele>161.2</ele>
        <time>2013-11-15T10:26:17Z</time>
      </trkpt>
      <trkpt lat="43.86222" lon="5.23377">
        <ele>158.8</ele>
        <time>2013-11-15T10:26:29Z</time>
      </trkpt>
      <trkpt lat="43.86218" lon="5.23368">
        <ele>158.3</ele>
        <time>2013-11-15T10:26:40Z</time>
      </trkpt>
      <trkpt lat="43.86217" lon="5.23362">
        <ele>157.3</ele>
        <time>2013-11-15T10:26:57Z</time>
      </trkpt>
      <trkpt lat="43.86217" lon="5.23359">
        <ele>157.3</ele>
        <time>2013-11-15T10:27:09Z</time>
      </trkpt>
      <trkpt lat="43.86217" lon="5.23358">
        <ele>157.3</ele>
        <time>2013-11-15T10:27:12Z</time>
      </trkpt>
      <trkpt lat="43.86214" lon="5.23342">
        <ele>156.4</ele>
        <time>2013-11-15T10:27:24Z</time>
      </trkpt>
      <trkpt lat="43.86214" lon="5.23329">
        <ele>154.9</ele>
        <time>2013-11-15T10:27:36Z</time>
      </trkpt>
      <trkpt lat="43.86215" lon="5.23327">
        <ele>153.5</ele>
        <time>2013-11-15T10:27:49Z</time>
      </trkpt>
      <trkpt lat="43.86215" lon="5.23319">
        <ele>151.1</ele>
        <time>2013-11-15T10:28:02Z</time>
      </trkpt>
      <trkpt lat="43.86215" lon="5.23315">
        <ele>150.1</ele>
        <time>2013-11-15T10:28:09Z</time>
      </trkpt>
      <trkpt lat="43.86218" lon="5.23302">
        <ele>148.7</ele>
        <time>2013-11-15T10:28:20Z</time>
      </trkpt>
      <trkpt lat="43.86218" lon="5.23293">
        <ele>147.2</ele>
        <time>2013-11-15T10:28:33Z</time>
      </trkpt>
      <trkpt lat="43.86218" lon="5.23283">
        <ele>144.8</ele>
        <time>2013-11-15T10:28:46Z</time>
      </trkpt>
      <trkpt lat="43.86218" lon="5.23274">
        <ele>142.9</ele>
        <time>2013-11-15T10:28:57Z</time>
      </trkpt>
      <trkpt lat="43.86219" lon="5.23262">
        <ele>141.9</ele>
        <time>2013-11-15T10:29:11Z</time>
      </trkpt>
      <trkpt lat="43.86225" lon="5.23249">
        <ele>140.5</ele>
        <time>2013-11-15T10:29:25Z</time>
      </trkpt>
      <trkpt lat="43.86225" lon="5.23234">
        <ele>139.1</ele>
        <time>2013-11-15T10:29:40Z</time>
      </trkpt>
      <trkpt lat="43.86222" lon="5.23228">
        <ele>139.5</ele>
        <time>2013-11-15T10:29:53Z</time>
      </trkpt>
      <trkpt lat="43.86222" lon="5.23228">
        <ele>139.5</ele>
        <time>2013-11-15T10:30:10Z</time>
      </trkpt>
      <trkpt lat="43.86223" lon="5.23223">
        <ele>138.6</ele>
        <time>2013-11-15T10:30:21Z</time>
      </trkpt>
      <trkpt lat="43.86222" lon="5.23212">
        <ele>137.6</ele>
        <time>2013-11-15T10:30:32Z</time>
      </trkpt>
      <trkpt lat="43.86219" lon="5.23205">
        <ele>136.6</ele>
        <time>2013-11-15T10:30:44Z</time>
      </trkpt>
      <trkpt lat="43.8621" lon="5.23198">
        <ele>134.7</ele>
        <time>2013-11-15T10:31:00Z</time>
      </trkpt>
      <trkpt lat="43.86204" lon="5.23196">
        <ele>134.2</ele>
        <time>2013-11-15T10:31:14Z</time>
      </trkpt>
      <trkpt lat="43.86201" lon="5.23195">
        <ele>133.8</ele>
        <time>2013-11-15T10:31:27Z</time>
      </trkpt>
      <trkpt lat="43.86192" lon="5.23192">
        <ele>132.3</ele>
        <time>2013-11-15T10:31:41Z</time>
      </trkpt>
      <trkpt lat="43.86186" lon="5.23183">
        <ele>131.8</ele>
        <time>2013-11-15T10:31:53Z</time>
      </trkpt>
      <trkpt lat="43.86185" lon="5.23182">
        <ele>131.4</ele>
        <time>2013-11-15T10:32:04Z</time>
      </trkpt>
      <trkpt lat="43.86185" lon="5.23181">
        <ele>131.4</ele>
        <time>2013-11-15T10:32:05Z</time>
      </trkpt>
      <trkpt lat="43.86186" lon="5.23177">
        <ele>131.8</ele>
        <time>2013-11-15T10:32:16Z</time>
      </trkpt>
      <trkpt lat="43.86192" lon="5.23171">
        <ele>133.3</ele>
        <time>2013-11-15T10:32:28Z</time>
      </trkpt>
      <trkpt lat="43.86197" lon="5.23168">
        <ele>133.3</ele>
        <time>2013-11-15T10:32:45Z</time>
      </trkpt>
      <trkpt lat="43.86202" lon="5.23163">
        <ele>132.3</ele>
        <time>2013-11-15T10:33:01Z</time>
      </trkpt>
      <trkpt lat="43.86196" lon="5.23147">
        <ele>131.8</ele>
        <time>2013-11-15T10:33:21Z</time>
      </trkpt>
      <trkpt lat="43.86198" lon="5.23138">
        <ele>131.8</ele>
        <time>2013-11-15T10:33:34Z</time>
      </trkpt>
      <trkpt lat="43.86198" lon="5.23137">
        <ele>131.4</ele>
        <time>2013-11-15T10:33:49Z</time>
      </trkpt>
      <trkpt lat="43.86194" lon="5.23135">
        <ele>131.4</ele>
        <time>2013-11-15T10:33:58Z</time>
      </trkpt>
      <trkpt lat="43.86184" lon="5.23133">
        <ele>131.4</ele>
        <time>2013-11-15T10:34:09Z</time>
      </trkpt>
      <trkpt lat="43.86184" lon="5.23134">
        <ele>130.9</ele>
        <time>2013-11-15T10:34:15Z</time>
      </trkpt>
      <trkpt lat="43.8618" lon="5.23134">
        <ele>130.9</ele>
        <time>2013-11-15T10:34:18Z</time>
      </trkpt>
      <trkpt lat="43.86173" lon="5.23135">
        <ele>131.8</ele>
        <time>2013-11-15T10:34:32Z</time>
      </trkpt>
      <trkpt lat="43.86174" lon="5.23129">
        <ele>132.3</ele>
        <time>2013-11-15T10:34:44Z</time>
      </trkpt>
      <trkpt lat="43.86174" lon="5.23123">
        <ele>135.2</ele>
        <time>2013-11-15T10:34:57Z</time>
      </trkpt>
      <trkpt lat="43.86168" lon="5.23121">
        <ele>138.1</ele>
        <time>2013-11-15T10:35:18Z</time>
      </trkpt>
      <trkpt lat="43.86161" lon="5.23114">
        <ele>137.6</ele>
        <time>2013-11-15T10:35:31Z</time>
      </trkpt>
      <trkpt lat="43.8616" lon="5.23112">
        <ele>137.6</ele>
        <time>2013-11-15T10:35:46Z</time>
      </trkpt>
      <trkpt lat="43.8616" lon="5.23107">
        <ele>137.6</ele>
        <time>2013-11-15T10:36:01Z</time>
      </trkpt>
      <trkpt lat="43.86162" lon="5.23107">
        <ele>137.6</ele>
        <time>2013-11-15T10:36:17Z</time>
      </trkpt>
      <trkpt lat="43.86162" lon="5.23104">
        <ele>137.6</ele>
        <time>2013-11-15T10:36:42Z</time>
      </trkpt>
      <trkpt lat="43.86156" lon="5.23107">
        <ele>137.6</ele>
        <time>2013-11-15T10:36:55Z</time>
      </trkpt>
      <trkpt lat="43.86157" lon="5.23104">
        <ele>137.6</ele>
        <time>2013-11-15T10:37:14Z</time>
      </trkpt>
      <trkpt lat="43.86159" lon="5.23108">
        <ele>137.6</ele>
        <time>2013-11-15T10:37:35Z</time>
      </trkpt>
      <trkpt lat="43.86159" lon="5.23108">
        <ele>137.1</ele>
        <time>2013-11-15T10:37:55Z</time>
      </trkpt>
      <trkpt lat="43.86159" lon="5.23108">
        <ele>137.1</ele>
        <time>2013-11-15T10:38:18Z</time>
      </trkpt>
      <trkpt lat="43.86161" lon="5.23108">
        <ele>137.1</ele>
        <time>2013-11-15T10:38:36Z</time>
      </trkpt>
      <trkpt lat="43.86158" lon="5.23102">
        <ele>137.6</ele>
        <time>2013-11-15T10:38:48Z</time>
      </trkpt>
      <trkpt lat="43.86158" lon="5.23101">
        <ele>137.1</ele>
        <time>2013-11-15T10:38:59Z</time>
      </trkpt>
      <trkpt lat="43.8616" lon="5.23104">
        <ele>137.1</ele>
        <time>2013-11-15T10:39:07Z</time>
      </trkpt>
      <trkpt lat="43.86168" lon="5.23106">
        <ele>136.6</ele>
        <time>2013-11-15T10:39:21Z</time>
      </trkpt>
      <trkpt lat="43.86171" lon="5.23104">
        <ele>137.1</ele>
        <time>2013-11-15T10:39:34Z</time>
      </trkpt>
      <trkpt lat="43.86171" lon="5.23101">
        <ele>137.6</ele>
        <time>2013-11-15T10:39:46Z</time>
      </trkpt>
      <trkpt lat="43.86172" lon="5.23101">
        <ele>139.1</ele>
        <time>2013-11-15T10:40:01Z</time>
      </trkpt>
      <trkpt lat="43.8617" lon="5.23096">
        <ele>141</ele>
        <time>2013-11-15T10:40:18Z</time>
      </trkpt>
      <trkpt lat="43.86168" lon="5.23093">
        <ele>144.3</ele>
        <time>2013-11-15T10:40:33Z</time>
      </trkpt>
      <trkpt lat="43.86166" lon="5.23092">
        <ele>147.2</ele>
        <time>2013-11-15T10:40:45Z</time>
      </trkpt>
      <trkpt lat="43.86166" lon="5.23091">
        <ele>150.1</ele>
        <time>2013-11-15T10:41:02Z</time>
      </trkpt>
      <trkpt lat="43.86159" lon="5.23074">
        <ele>153.5</ele>
        <time>2013-11-15T10:41:17Z</time>
      </trkpt>
      <trkpt lat="43.86155" lon="5.23064">
        <ele>155.9</ele>
        <time>2013-11-15T10:41:36Z</time>
      </trkpt>
      <trkpt lat="43.86152" lon="5.23061">
        <ele>155.9</ele>
        <time>2013-11-15T10:41:57Z</time>
      </trkpt>
      <trkpt lat="43.86152" lon="5.23061">
        <ele>155.4</ele>
        <time>2013-11-15T10:42:18Z</time>
      </trkpt>
      <trkpt lat="43.86151" lon="5.23061">
        <ele>156.8</ele>
        <time>2013-11-15T10:42:29Z</time>
      </trkpt>
      <trkpt lat="43.8615" lon="5.2306">
        <ele>160.2</ele>
        <time>2013-11-15T10:42:44Z</time>
      </trkpt>
      <trkpt lat="43.86138" lon="5.23054">
        <ele>163.1</ele>
        <time>2013-11-15T10:43:04Z</time>
      </trkpt>
      <trkpt lat="43.86136" lon="5.23052">
        <ele>166</ele>
        <time>2013-11-15T10:43:22Z</time>
      </trkpt>
      <trkpt lat="43.86135" lon="5.23051">
        <ele>167.9</ele>
        <time>2013-11-15T10:43:40Z</time>
      </trkpt>
      <trkpt lat="43.86133" lon="5.23052">
        <ele>167.9</ele>
        <time>2013-11-15T10:44:02Z</time>
      </trkpt>
      <trkpt lat="43.86135" lon="5.23052">
        <ele>167.9</ele>
        <time>2013-11-15T10:44:19Z</time>
      </trkpt>
      <trkpt lat="43.86135" lon="5.23055">
        <ele>167.4</ele>
        <time>2013-11-15T10:44:38Z</time>
      </trkpt>
      <trkpt lat="43.86134" lon="5.23056">
        <ele>167.9</ele>
        <time>2013-11-15T10:44:56Z</time>
      </trkpt>
      <trkpt lat="43.86141" lon="5.23048">
        <ele>167.9</ele>
        <time>2013-11-15T10:45:08Z</time>
      </trkpt>
      <trkpt lat="43.8615" lon="5.23042">
        <ele>168.4</ele>
        <time>2013-11-15T10:45:22Z</time>
      </trkpt>
      <trkpt lat="43.86153" lon="5.23041">
        <ele>168.4</ele>
        <time>2013-11-15T10:45:26Z</time>
      </trkpt>
      <trkpt lat="43.86159" lon="5.23041">
        <ele>168.9</ele>
        <time>2013-11-15T10:45:40Z</time>
      </trkpt>
      <trkpt lat="43.86164" lon="5.2304">
        <ele>168.4</ele>
        <time>2013-11-15T10:45:57Z</time>
      </trkpt>
      <trkpt lat="43.86182" lon="5.23039">
        <ele>167.4</ele>
        <time>2013-11-15T10:46:11Z</time>
      </trkpt>
      <trkpt lat="43.8619" lon="5.23047">
        <ele>167.4</ele>
        <time>2013-11-15T10:46:27Z</time>
      </trkpt>
      <trkpt lat="43.86195" lon="5.23042">
        <ele>166.9</ele>
        <time>2013-11-15T10:46:39Z</time>
      </trkpt>
      <trkpt lat="43.86196" lon="5.23033">
        <ele>166.9</ele>
        <time>2013-11-15T10:46:59Z</time>
      </trkpt>
      <trkpt lat="43.86189" lon="5.23045">
        <ele>167.4</ele>
        <time>2013-11-15T10:47:25Z</time>
      </trkpt>
      <trkpt lat="43.86197" lon="5.23056">
        <ele>166.9</ele>
        <time>2013-11-15T10:47:46Z</time>
      </trkpt>
      <trkpt lat="43.862" lon="5.2305">
        <ele>166.9</ele>
        <time>2013-11-15T10:48:04Z</time>
      </trkpt>
      <trkpt lat="43.86197" lon="5.23048">
        <ele>167.4</ele>
        <time>2013-11-15T10:48:27Z</time>
      </trkpt>
      <trkpt lat="43.86197" lon="5.23047">
        <ele>166.9</ele>
        <time>2013-11-15T10:48:54Z</time>
      </trkpt>
      <trkpt lat="43.86198" lon="5.23042">
        <ele>167.4</ele>
        <time>2013-11-15T10:49:17Z</time>
      </trkpt>
      <trkpt lat="43.86196" lon="5.23043">
        <ele>167.4</ele>
        <time>2013-11-15T10:49:31Z</time>
      </trkpt>
      <trkpt lat="43.86181" lon="5.23042">
        <ele>167.9</ele>
        <time>2013-11-15T10:49:48Z</time>
      </trkpt>
      <trkpt lat="43.86172" lon="5.23045">
        <ele>168.4</ele>
        <time>2013-11-15T10:50:00Z</time>
      </trkpt>
      <trkpt lat="43.86173" lon="5.23045">
        <ele>167.9</ele>
        <time>2013-11-15T10:50:18Z</time>
      </trkpt>
      <trkpt lat="43.86174" lon="5.23043">
        <ele>168.4</ele>
        <time>2013-11-15T10:50:39Z</time>
      </trkpt>
      <trkpt lat="43.86175" lon="5.23043">
        <ele>168.4</ele>
        <time>2013-11-15T10:50:55Z</time>
      </trkpt>
      <trkpt lat="43.86175" lon="5.23043">
        <ele>168.4</ele>
        <time>2013-11-15T10:51:18Z</time>
      </trkpt>
      <trkpt lat="43.86175" lon="5.23044">
        <ele>168.4</ele>
        <time>2013-11-15T10:51:42Z</time>
      </trkpt>
      <trkpt lat="43.86174" lon="5.23044">
        <ele>168.9</ele>
        <time>2013-11-15T10:52:06Z</time>
      </trkpt>
      <trkpt lat="43.86168" lon="5.23044">
        <ele>169.3</ele>
        <time>2013-11-15T10:52:18Z</time>
      </trkpt>
      <trkpt lat="43.86165" lon="5.23043">
        <ele>169.3</ele>
        <time>2013-11-15T10:52:22Z</time>
      </trkpt>
      <trkpt lat="43.86161" lon="5.23043">
        <ele>169.8</ele>
        <time>2013-11-15T10:52:24Z</time>
      </trkpt>
      <trkpt lat="43.86152" lon="5.23041">
        <ele>168.9</ele>
        <time>2013-11-15T10:52:37Z</time>
      </trkpt>
      <trkpt lat="43.86139" lon="5.2305">
        <ele>168.9</ele>
        <time>2013-11-15T10:52:52Z</time>
      </trkpt>
      <trkpt lat="43.86134" lon="5.23047">
        <ele>170.3</ele>
        <time>2013-11-15T10:53:07Z</time>
      </trkpt>
      <trkpt lat="43.86131" lon="5.23047">
        <ele>173.2</ele>
        <time>2013-11-15T10:53:27Z</time>
      </trkpt>
      <trkpt lat="43.86124" lon="5.23047">
        <ele>176.1</ele>
        <time>2013-11-15T10:53:44Z</time>
      </trkpt>
      <trkpt lat="43.8612" lon="5.23044">
        <ele>179.4</ele>
        <time>2013-11-15T10:54:05Z</time>
      </trkpt>
      <trkpt lat="43.86109" lon="5.23033">
        <ele>182.8</ele>
        <time>2013-11-15T10:54:24Z</time>
      </trkpt>
      <trkpt lat="43.8611" lon="5.23033">
        <ele>184.7</ele>
        <time>2013-11-15T10:54:36Z</time>
      </trkpt>
      <trkpt lat="43.86108" lon="5.23031">
        <ele>186.6</ele>
        <time>2013-11-15T10:54:48Z</time>
      </trkpt>
      <trkpt lat="43.86105" lon="5.23029">
        <ele>188.1</ele>
        <time>2013-11-15T10:55:00Z</time>
      </trkpt>
      <trkpt lat="43.86104" lon="5.23027">
        <ele>189.5</ele>
        <time>2013-11-15T10:55:18Z</time>
      </trkpt>
      <trkpt lat="43.86097" lon="5.23023">
        <ele>192.9</ele>
        <time>2013-11-15T10:55:35Z</time>
      </trkpt>
      <trkpt lat="43.86095" lon="5.2302">
        <ele>194.8</ele>
        <time>2013-11-15T10:55:49Z</time>
      </trkpt>
      <trkpt lat="43.86093" lon="5.23016">
        <ele>196.7</ele>
        <time>2013-11-15T10:56:03Z</time>
      </trkpt>
      <trkpt lat="43.8609" lon="5.23013">
        <ele>197.7</ele>
        <time>2013-11-15T10:56:16Z</time>
      </trkpt>
      <trkpt lat="43.86089" lon="5.23014">
        <ele>198.2</ele>
        <time>2013-11-15T10:56:28Z</time>
      </trkpt>
      <trkpt lat="43.86089" lon="5.23014">
        <ele>199.6</ele>
        <time>2013-11-15T10:56:45Z</time>
      </trkpt>
      <trkpt lat="43.86089" lon="5.23014">
        <ele>200.1</ele>
        <time>2013-11-15T10:56:46Z</time>
      </trkpt>
      <trkpt lat="43.86088" lon="5.23013">
        <ele>200.1</ele>
        <time>2013-11-15T10:56:59Z</time>
      </trkpt>
      <trkpt lat="43.86087" lon="5.23015">
        <ele>200.6</ele>
        <time>2013-11-15T10:57:22Z</time>
      </trkpt>
      <trkpt lat="43.86088" lon="5.23012">
        <ele>201.1</ele>
        <time>2013-11-15T10:57:34Z</time>
      </trkpt>
      <trkpt lat="43.86088" lon="5.23012">
        <ele>201.5</ele>
        <time>2013-11-15T10:57:59Z</time>
      </trkpt>
      <trkpt lat="43.86088" lon="5.23013">
        <ele>201.1</ele>
        <time>2013-11-15T10:58:26Z</time>
      </trkpt>
      <trkpt lat="43.86089" lon="5.23012">
        <ele>201.5</ele>
        <time>2013-11-15T10:58:43Z</time>
      </trkpt>
      <trkpt lat="43.8609" lon="5.23011">
        <ele>203</ele>
        <time>2013-11-15T10:59:02Z</time>
      </trkpt>
      <trkpt lat="43.86095" lon="5.22999">
        <ele>205.4</ele>
        <time>2013-11-15T10:59:22Z</time>
      </trkpt>
      <trkpt lat="43.86094" lon="5.2299">
        <ele>206.8</ele>
        <time>2013-11-15T10:59:35Z</time>
      </trkpt>
      <trkpt lat="43.86094" lon="5.22981">
        <ele>209.7</ele>
        <time>2013-11-15T10:59:50Z</time>
      </trkpt>
      <trkpt lat="43.86093" lon="5.22978">
        <ele>210.7</ele>
        <time>2013-11-15T10:59:57Z</time>
      </trkpt>
      <trkpt lat="43.86093" lon="5.22972">
        <ele>212.6</ele>
        <time>2013-11-15T11:00:07Z</time>
      </trkpt>
      <trkpt lat="43.86093" lon="5.2297">
        <ele>213.6</ele>
        <time>2013-11-15T11:00:11Z</time>
      </trkpt>
      <trkpt lat="43.86094" lon="5.2296">
        <ele>216</ele>
        <time>2013-11-15T11:00:23Z</time>
      </trkpt>
      <trkpt lat="43.86094" lon="5.22957">
        <ele>216.9</ele>
        <time>2013-11-15T11:00:34Z</time>
      </trkpt>
      <trkpt lat="43.86094" lon="5.22945">
        <ele>218.8</ele>
        <time>2013-11-15T11:00:51Z</time>
      </trkpt>
      <trkpt lat="43.86088" lon="5.22936">
        <ele>219.8</ele>
        <time>2013-11-15T11:01:08Z</time>
      </trkpt>
      <trkpt lat="43.86083" lon="5.2292">
        <ele>220.3</ele>
        <time>2013-11-15T11:01:24Z</time>
      </trkpt>
      <trkpt lat="43.86083" lon="5.22912">
        <ele>221.7</ele>
        <time>2013-11-15T11:01:40Z</time>
      </trkpt>
      <trkpt lat="43.86085" lon="5.22902">
        <ele>221.7</ele>
        <time>2013-11-15T11:01:55Z</time>
      </trkpt>
      <trkpt lat="43.86089" lon="5.2289">
        <ele>222.2</ele>
        <time>2013-11-15T11:02:09Z</time>
      </trkpt>
      <trkpt lat="43.86091" lon="5.22885">
        <ele>222.2</ele>
        <time>2013-11-15T11:02:22Z</time>
      </trkpt>
      <trkpt lat="43.86092" lon="5.22878">
        <ele>222.2</ele>
        <time>2013-11-15T11:02:35Z</time>
      </trkpt>
      <trkpt lat="43.86093" lon="5.2287">
        <ele>222.7</ele>
        <time>2013-11-15T11:02:47Z</time>
      </trkpt>
      <trkpt lat="43.861" lon="5.22857">
        <ele>222.7</ele>
        <time>2013-11-15T11:03:01Z</time>
      </trkpt>
      <trkpt lat="43.86109" lon="5.22841">
        <ele>222.2</ele>
        <time>2013-11-15T11:03:16Z</time>
      </trkpt>
      <trkpt lat="43.86122" lon="5.22806">
        <ele>221.2</ele>
        <time>2013-11-15T11:03:38Z</time>
      </trkpt>
      <trkpt lat="43.86126" lon="5.228">
        <ele>220.8</ele>
        <time>2013-11-15T11:03:53Z</time>
      </trkpt>
      <trkpt lat="43.86135" lon="5.2278">
        <ele>220.3</ele>
        <time>2013-11-15T11:04:09Z</time>
      </trkpt>
      <trkpt lat="43.86148" lon="5.22759">
        <ele>220.3</ele>
        <time>2013-11-15T11:04:21Z</time>
      </trkpt>
      <trkpt lat="43.86162" lon="5.22754">
        <ele>220.8</ele>
        <time>2013-11-15T11:04:38Z</time>
      </trkpt>
      <trkpt lat="43.86175" lon="5.22742">
        <ele>220.3</ele>
        <time>2013-11-15T11:04:55Z</time>
      </trkpt>
      <trkpt lat="43.86181" lon="5.22735">
        <ele>219.3</ele>
        <time>2013-11-15T11:05:10Z</time>
      </trkpt>
      <trkpt lat="43.86182" lon="5.2273">
        <ele>218.8</ele>
        <time>2013-11-15T11:05:27Z</time>
      </trkpt>
      <trkpt lat="43.86186" lon="5.22724">
        <ele>219.3</ele>
        <time>2013-11-15T11:05:44Z</time>
      </trkpt>
      <trkpt lat="43.86203" lon="5.22715">
        <ele>219.3</ele>
        <time>2013-11-15T11:06:03Z</time>
      </trkpt>
      <trkpt lat="43.86215" lon="5.22701">
        <ele>218.8</ele>
        <time>2013-11-15T11:06:16Z</time>
      </trkpt>
      <trkpt lat="43.86218" lon="5.22695">
        <ele>218.4</ele>
        <time>2013-11-15T11:06:31Z</time>
      </trkpt>
      <trkpt lat="43.86221" lon="5.22689">
        <ele>217.9</ele>
        <time>2013-11-15T11:06:43Z</time>
      </trkpt>
      <trkpt lat="43.86224" lon="5.22685">
        <ele>217.9</ele>
        <time>2013-11-15T11:06:53Z</time>
      </trkpt>
      <trkpt lat="43.86223" lon="5.2268">
        <ele>218.4</ele>
        <time>2013-11-15T11:07:12Z</time>
      </trkpt>
      <trkpt lat="43.86222" lon="5.22678">
        <ele>218.4</ele>
        <time>2013-11-15T11:07:24Z</time>
      </trkpt>
      <trkpt lat="43.86222" lon="5.22679">
        <ele>218.4</ele>
        <time>2013-11-15T11:07:38Z</time>
      </trkpt>
      <trkpt lat="43.86222" lon="5.22679">
        <ele>218.4</ele>
        <time>2013-11-15T11:07:51Z</time>
      </trkpt>
      <trkpt lat="43.86224" lon="5.22678">
        <ele>218.4</ele>
        <time>2013-11-15T11:08:09Z</time>
      </trkpt>
      <trkpt lat="43.86225" lon="5.22678">
        <ele>218.4</ele>
        <time>2013-11-15T11:08:22Z</time>
      </trkpt>
      <trkpt lat="43.86229" lon="5.2268">
        <ele>218.4</ele>
        <time>2013-11-15T11:08:28Z</time>
      </trkpt>
      <trkpt lat="43.86238" lon="5.2269">
        <ele>219.3</ele>
        <time>2013-11-15T11:08:40Z</time>
      </trkpt>
      <trkpt lat="43.86241" lon="5.22692">
        <ele>218.8</ele>
        <time>2013-11-15T11:08:56Z</time>
      </trkpt>
      <trkpt lat="43.86258" lon="5.22699">
        <ele>219.8</ele>
        <time>2013-11-15T11:09:14Z</time>
      </trkpt>
      <trkpt lat="43.8627" lon="5.22705">
        <ele>220.3</ele>
        <time>2013-11-15T11:09:29Z</time>
      </trkpt>
      <trkpt lat="43.86274" lon="5.22706">
        <ele>220.3</ele>
        <time>2013-11-15T11:09:54Z</time>
      </trkpt>
      <trkpt lat="43.86275" lon="5.22705">
        <ele>220.3</ele>
        <time>2013-11-15T11:10:08Z</time>
      </trkpt>
      <trkpt lat="43.86274" lon="5.22705">
        <ele>220.3</ele>
        <time>2013-11-15T11:10:33Z</time>
      </trkpt>
      <trkpt lat="43.86264" lon="5.227">
        <ele>218.8</ele>
        <time>2013-11-15T11:10:46Z</time>
      </trkpt>
      <trkpt lat="43.86259" lon="5.22698">
        <ele>218.4</ele>
        <time>2013-11-15T11:10:51Z</time>
      </trkpt>
      <trkpt lat="43.86247" lon="5.22688">
        <ele>217.9</ele>
        <time>2013-11-15T11:11:04Z</time>
      </trkpt>
      <trkpt lat="43.86238" lon="5.22683">
        <ele>217.4</ele>
        <time>2013-11-15T11:11:13Z</time>
      </trkpt>
      <trkpt lat="43.86229" lon="5.22679">
        <ele>217.4</ele>
        <time>2013-11-15T11:11:24Z</time>
      </trkpt>
      <trkpt lat="43.86224" lon="5.22691">
        <ele>217.9</ele>
        <time>2013-11-15T11:11:35Z</time>
      </trkpt>
      <trkpt lat="43.86218" lon="5.227">
        <ele>217.9</ele>
        <time>2013-11-15T11:11:44Z</time>
      </trkpt>
      <trkpt lat="43.86213" lon="5.22703">
        <ele>217.9</ele>
        <time>2013-11-15T11:11:48Z</time>
      </trkpt>
      <trkpt lat="43.8621" lon="5.22706">
        <ele>218.4</ele>
        <time>2013-11-15T11:11:51Z</time>
      </trkpt>
      <trkpt lat="43.86207" lon="5.22708">
        <ele>217.9</ele>
        <time>2013-11-15T11:11:54Z</time>
      </trkpt>
      <trkpt lat="43.86201" lon="5.2271">
        <ele>217.9</ele>
        <time>2013-11-15T11:11:59Z</time>
      </trkpt>
      <trkpt lat="43.86189" lon="5.22715">
        <ele>217.4</ele>
        <time>2013-11-15T11:12:11Z</time>
      </trkpt>
      <trkpt lat="43.86185" lon="5.22716">
        <ele>217.9</ele>
        <time>2013-11-15T11:12:23Z</time>
      </trkpt>
      <trkpt lat="43.86184" lon="5.22716">
        <ele>217.4</ele>
        <time>2013-11-15T11:12:25Z</time>
      </trkpt>
      <trkpt lat="43.86177" lon="5.22711">
        <ele>216.9</ele>
        <time>2013-11-15T11:12:36Z</time>
      </trkpt>
      <trkpt lat="43.86169" lon="5.22711">
        <ele>217.4</ele>
        <time>2013-11-15T11:12:48Z</time>
      </trkpt>
      <trkpt lat="43.86165" lon="5.22705">
        <ele>215.5</ele>
        <time>2013-11-15T11:13:00Z</time>
      </trkpt>
      <trkpt lat="43.86164" lon="5.22711">
        <ele>216.9</ele>
        <time>2013-11-15T11:13:14Z</time>
      </trkpt>
      <trkpt lat="43.86163" lon="5.22722">
        <ele>217.9</ele>
        <time>2013-11-15T11:13:20Z</time>
      </trkpt>
      <trkpt lat="43.86165" lon="5.22725">
        <ele>217.9</ele>
        <time>2013-11-15T11:13:22Z</time>
      </trkpt>
      <trkpt lat="43.86163" lon="5.22735">
        <ele>217.9</ele>
        <time>2013-11-15T11:13:27Z</time>
      </trkpt>
      <trkpt lat="43.86163" lon="5.22739">
        <ele>218.8</ele>
        <time>2013-11-15T11:13:30Z</time>
      </trkpt>
      <trkpt lat="43.86168" lon="5.22753">
        <ele>219.3</ele>
        <time>2013-11-15T11:13:43Z</time>
      </trkpt>
      <trkpt lat="43.8617" lon="5.22753">
        <ele>218.8</ele>
        <time>2013-11-15T11:13:52Z</time>
      </trkpt>
      <trkpt lat="43.8618" lon="5.22744">
        <ele>218.8</ele>
        <time>2013-11-15T11:14:05Z</time>
      </trkpt>
      <trkpt lat="43.86182" lon="5.22741">
        <ele>217.9</ele>
        <time>2013-11-15T11:14:20Z</time>
      </trkpt>
      <trkpt lat="43.86182" lon="5.22737">
        <ele>217.9</ele>
        <time>2013-11-15T11:14:44Z</time>
      </trkpt>
      <trkpt lat="43.86183" lon="5.22736">
        <ele>217.9</ele>
        <time>2013-11-15T11:14:51Z</time>
      </trkpt>
      <trkpt lat="43.86183" lon="5.22735">
        <ele>217.9</ele>
        <time>2013-11-15T11:14:55Z</time>
      </trkpt>
      <trkpt lat="43.86183" lon="5.2274">
        <ele>218.8</ele>
        <time>2013-11-15T11:15:07Z</time>
      </trkpt>
      <trkpt lat="43.86179" lon="5.22746">
        <ele>218.8</ele>
        <time>2013-11-15T11:15:13Z</time>
      </trkpt>
      <trkpt lat="43.86177" lon="5.2275">
        <ele>218.8</ele>
        <time>2013-11-15T11:15:16Z</time>
      </trkpt>
      <trkpt lat="43.86171" lon="5.22752">
        <ele>218.8</ele>
        <time>2013-11-15T11:15:22Z</time>
      </trkpt>
      <trkpt lat="43.86167" lon="5.22749">
        <ele>218.8</ele>
        <time>2013-11-15T11:15:27Z</time>
      </trkpt>
      <trkpt lat="43.86165" lon="5.22744">
        <ele>218.4</ele>
        <time>2013-11-15T11:15:31Z</time>
      </trkpt>
      <trkpt lat="43.86164" lon="5.22727">
        <ele>217.9</ele>
        <time>2013-11-15T11:15:46Z</time>
      </trkpt>
      <trkpt lat="43.86166" lon="5.22715">
        <ele>216.4</ele>
        <time>2013-11-15T11:15:59Z</time>
      </trkpt>
      <trkpt lat="43.86165" lon="5.22711">
        <ele>215</ele>
        <time>2013-11-15T11:16:12Z</time>
      </trkpt>
      <trkpt lat="43.86163" lon="5.22706">
        <ele>214.5</ele>
        <time>2013-11-15T11:16:26Z</time>
      </trkpt>
      <trkpt lat="43.86159" lon="5.22691">
        <ele>214.5</ele>
        <time>2013-11-15T11:16:58Z</time>
      </trkpt>
      <trkpt lat="43.86157" lon="5.22694">
        <ele>214.5</ele>
        <time>2013-11-15T11:17:13Z</time>
      </trkpt>
      <trkpt lat="43.86158" lon="5.22695">
        <ele>214.5</ele>
        <time>2013-11-15T11:17:38Z</time>
      </trkpt>
      <trkpt lat="43.86157" lon="5.22694">
        <ele>215</ele>
        <time>2013-11-15T11:17:58Z</time>
      </trkpt>
      <trkpt lat="43.86155" lon="5.22697">
        <ele>215</ele>
        <time>2013-11-15T11:18:14Z</time>
      </trkpt>
      <trkpt lat="43.86154" lon="5.22703">
        <ele>215</ele>
        <time>2013-11-15T11:18:35Z</time>
      </trkpt>
      <trkpt lat="43.86155" lon="5.227">
        <ele>215</ele>
        <time>2013-11-15T11:18:55Z</time>
      </trkpt>
      <trkpt lat="43.86155" lon="5.227">
        <ele>215</ele>
        <time>2013-11-15T11:19:18Z</time>
      </trkpt>
      <trkpt lat="43.86155" lon="5.22699">
        <ele>215</ele>
        <time>2013-11-15T11:19:43Z</time>
      </trkpt>
      <trkpt lat="43.86156" lon="5.22699">
        <ele>215</ele>
        <time>2013-11-15T11:20:12Z</time>
      </trkpt>
      <trkpt lat="43.86157" lon="5.22697">
        <ele>215.5</ele>
        <time>2013-11-15T11:20:33Z</time>
      </trkpt>
      <trkpt lat="43.86157" lon="5.22697">
        <ele>215</ele>
        <time>2013-11-15T11:20:56Z</time>
      </trkpt>
      <trkpt lat="43.86157" lon="5.22697">
        <ele>215.5</ele>
        <time>2013-11-15T11:21:16Z</time>
      </trkpt>
      <trkpt lat="43.86157" lon="5.22698">
        <ele>215.5</ele>
        <time>2013-11-15T11:21:38Z</time>
      </trkpt>
      <trkpt lat="43.86158" lon="5.22698">
        <ele>215.5</ele>
        <time>2013-11-15T11:21:56Z</time>
      </trkpt>
      <trkpt lat="43.86158" lon="5.22698">
        <ele>215</ele>
        <time>2013-11-15T11:22:21Z</time>
      </trkpt>
      <trkpt lat="43.86158" lon="5.22698">
        <ele>215</ele>
        <time>2013-11-15T11:22:50Z</time>
      </trkpt>
      <trkpt lat="43.86158" lon="5.22697">
        <ele>215</ele>
        <time>2013-11-15T11:23:13Z</time>
      </trkpt>
      <trkpt lat="43.86158" lon="5.22698">
        <ele>215</ele>
        <time>2013-11-15T11:23:40Z</time>
      </trkpt>
      <trkpt lat="43.86158" lon="5.22697">
        <ele>215</ele>
        <time>2013-11-15T11:24:03Z</time>
      </trkpt>
      <trkpt lat="43.86159" lon="5.22694">
        <ele>215</ele>
        <time>2013-11-15T11:24:19Z</time>
      </trkpt>
      <trkpt lat="43.86165" lon="5.22684">
        <ele>215</ele>
        <time>2013-11-15T11:24:32Z</time>
      </trkpt>
      <trkpt lat="43.86175" lon="5.22671">
        <ele>215</ele>
        <time>2013-11-15T11:24:47Z</time>
      </trkpt>
      <trkpt lat="43.86179" lon="5.22668">
        <ele>215</ele>
        <time>2013-11-15T11:25:06Z</time>
      </trkpt>
      <trkpt lat="43.86185" lon="5.22666">
        <ele>215</ele>
        <time>2013-11-15T11:25:18Z</time>
      </trkpt>
      <trkpt lat="43.86196" lon="5.22659">
        <ele>215</ele>
        <time>2013-11-15T11:25:34Z</time>
      </trkpt>
      <trkpt lat="43.86203" lon="5.22652">
        <ele>214</ele>
        <time>2013-11-15T11:25:48Z</time>
      </trkpt>
      <trkpt lat="43.86211" lon="5.22651">
        <ele>214.5</ele>
        <time>2013-11-15T11:26:06Z</time>
      </trkpt>
      <trkpt lat="43.8622" lon="5.22648">
        <ele>214.5</ele>
        <time>2013-11-15T11:26:25Z</time>
      </trkpt>
      <trkpt lat="43.8623" lon="5.2265">
        <ele>214.5</ele>
        <time>2013-11-15T11:26:52Z</time>
      </trkpt>
      <trkpt lat="43.86234" lon="5.22647">
        <ele>214</ele>
        <time>2013-11-15T11:27:09Z</time>
      </trkpt>
      <trkpt lat="43.86242" lon="5.22639">
        <ele>213.6</ele>
        <time>2013-11-15T11:27:21Z</time>
      </trkpt>
      <trkpt lat="43.86253" lon="5.2263">
        <ele>212.6</ele>
        <time>2013-11-15T11:27:33Z</time>
      </trkpt>
      <trkpt lat="43.86257" lon="5.22628">
        <ele>212.6</ele>
        <time>2013-11-15T11:27:38Z</time>
      </trkpt>
      <trkpt lat="43.86264" lon="5.22626">
        <ele>212.1</ele>
        <time>2013-11-15T11:27:50Z</time>
      </trkpt>
      <trkpt lat="43.86278" lon="5.22618">
        <ele>212.1</ele>
        <time>2013-11-15T11:28:02Z</time>
      </trkpt>
      <trkpt lat="43.86292" lon="5.22612">
        <ele>212.1</ele>
        <time>2013-11-15T11:28:15Z</time>
      </trkpt>
      <trkpt lat="43.86319" lon="5.22603">
        <ele>211.2</ele>
        <time>2013-11-15T11:28:31Z</time>
      </trkpt>
      <trkpt lat="43.86331" lon="5.22594">
        <ele>211.2</ele>
        <time>2013-11-15T11:28:49Z</time>
      </trkpt>
      <trkpt lat="43.86356" lon="5.22579">
        <ele>211.2</ele>
        <time>2013-11-15T11:29:10Z</time>
      </trkpt>
      <trkpt lat="43.86368" lon="5.22567">
        <ele>210.7</ele>
        <time>2013-11-15T11:29:29Z</time>
      </trkpt>
      <trkpt lat="43.86387" lon="5.22557">
        <ele>209.2</ele>
        <time>2013-11-15T11:29:48Z</time>
      </trkpt>
      <trkpt lat="43.86405" lon="5.22546">
        <ele>207.8</ele>
        <time>2013-11-15T11:30:11Z</time>
      </trkpt>
      <trkpt lat="43.86422" lon="5.22536">
        <ele>206.3</ele>
        <time>2013-11-15T11:30:30Z</time>
      </trkpt>
      <trkpt lat="43.86442" lon="5.22524">
        <ele>204.9</ele>
        <time>2013-11-15T11:30:49Z</time>
      </trkpt>
      <trkpt lat="43.86454" lon="5.2251">
        <ele>203</ele>
        <time>2013-11-15T11:31:05Z</time>
      </trkpt>
      <trkpt lat="43.8646" lon="5.22503">
        <ele>202</ele>
        <time>2013-11-15T11:31:17Z</time>
      </trkpt>
      <trkpt lat="43.86477" lon="5.22482">
        <ele>201.1</ele>
        <time>2013-11-15T11:31:38Z</time>
      </trkpt>
      <trkpt lat="43.86492" lon="5.22467">
        <ele>201.1</ele>
        <time>2013-11-15T11:31:54Z</time>
      </trkpt>
      <trkpt lat="43.86508" lon="5.22452">
        <ele>202</ele>
        <time>2013-11-15T11:32:12Z</time>
      </trkpt>
      <trkpt lat="43.8651" lon="5.22448">
        <ele>201.1</ele>
        <time>2013-11-15T11:32:27Z</time>
      </trkpt>
      <trkpt lat="43.86506" lon="5.22436">
        <ele>198.2</ele>
        <time>2013-11-15T11:32:49Z</time>
      </trkpt>
      <trkpt lat="43.86502" lon="5.2242">
        <ele>195.8</ele>
        <time>2013-11-15T11:33:07Z</time>
      </trkpt>
      <trkpt lat="43.86498" lon="5.2241">
        <ele>194.3</ele>
        <time>2013-11-15T11:33:20Z</time>
      </trkpt>
      <trkpt lat="43.86497" lon="5.22402">
        <ele>192.9</ele>
        <time>2013-11-15T11:33:31Z</time>
      </trkpt>
      <trkpt lat="43.86497" lon="5.22397">
        <ele>191</ele>
        <time>2013-11-15T11:33:42Z</time>
      </trkpt>
      <trkpt lat="43.86495" lon="5.22391">
        <ele>189</ele>
        <time>2013-11-15T11:33:55Z</time>
      </trkpt>
      <trkpt lat="43.86493" lon="5.22379">
        <ele>187.6</ele>
        <time>2013-11-15T11:34:07Z</time>
      </trkpt>
      <trkpt lat="43.86488" lon="5.22366">
        <ele>185.7</ele>
        <time>2013-11-15T11:34:21Z</time>
      </trkpt>
      <trkpt lat="43.86483" lon="5.22357">
        <ele>183.8</ele>
        <time>2013-11-15T11:34:32Z</time>
      </trkpt>
      <trkpt lat="43.86473" lon="5.22335">
        <ele>183.8</ele>
        <time>2013-11-15T11:34:47Z</time>
      </trkpt>
      <trkpt lat="43.86472" lon="5.22334">
        <ele>183.3</ele>
        <time>2013-11-15T11:34:48Z</time>
      </trkpt>
      <trkpt lat="43.86453" lon="5.22335">
        <ele>185.7</ele>
        <time>2013-11-15T11:35:06Z</time>
      </trkpt>
      <trkpt lat="43.8645" lon="5.22324">
        <ele>187.1</ele>
        <time>2013-11-15T11:35:21Z</time>
      </trkpt>
      <trkpt lat="43.8646" lon="5.22312">
        <ele>187.6</ele>
        <time>2013-11-15T11:35:34Z</time>
      </trkpt>
      <trkpt lat="43.86474" lon="5.22292">
        <ele>188.6</ele>
        <time>2013-11-15T11:35:53Z</time>
      </trkpt>
      <trkpt lat="43.86477" lon="5.22286">
        <ele>188.6</ele>
        <time>2013-11-15T11:35:59Z</time>
      </trkpt>
      <trkpt lat="43.86486" lon="5.2227">
        <ele>189.5</ele>
        <time>2013-11-15T11:36:16Z</time>
      </trkpt>
      <trkpt lat="43.86497" lon="5.22259">
        <ele>190</ele>
        <time>2013-11-15T11:36:30Z</time>
      </trkpt>
      <trkpt lat="43.86512" lon="5.22241">
        <ele>191</ele>
        <time>2013-11-15T11:36:49Z</time>
      </trkpt>
      <trkpt lat="43.86516" lon="5.22239">
        <ele>191.4</ele>
        <time>2013-11-15T11:37:09Z</time>
      </trkpt>
      <trkpt lat="43.86522" lon="5.22231">
        <ele>191.9</ele>
        <time>2013-11-15T11:37:22Z</time>
      </trkpt>
      <trkpt lat="43.86535" lon="5.22219">
        <ele>192.4</ele>
        <time>2013-11-15T11:37:39Z</time>
      </trkpt>
      <trkpt lat="43.86558" lon="5.22207">
        <ele>192.9</ele>
        <time>2013-11-15T11:37:58Z</time>
      </trkpt>
      <trkpt lat="43.86572" lon="5.22194">
        <ele>194.3</ele>
        <time>2013-11-15T11:38:17Z</time>
      </trkpt>
      <trkpt lat="43.86591" lon="5.22183">
        <ele>196.3</ele>
        <time>2013-11-15T11:38:36Z</time>
      </trkpt>
      <trkpt lat="43.86595" lon="5.22181">
        <ele>196.3</ele>
        <time>2013-11-15T11:38:40Z</time>
      </trkpt>
      <trkpt lat="43.86613" lon="5.22171">
        <ele>197.7</ele>
        <time>2013-11-15T11:38:58Z</time>
      </trkpt>
      <trkpt lat="43.86629" lon="5.22165">
        <ele>199.1</ele>
        <time>2013-11-15T11:39:14Z</time>
      </trkpt>
      <trkpt lat="43.86647" lon="5.22158">
        <ele>200.6</ele>
        <time>2013-11-15T11:39:34Z</time>
      </trkpt>
      <trkpt lat="43.86666" lon="5.22148">
        <ele>202.5</ele>
        <time>2013-11-15T11:39:54Z</time>
      </trkpt>
      <trkpt lat="43.86679" lon="5.22146">
        <ele>203.9</ele>
        <time>2013-11-15T11:40:10Z</time>
      </trkpt>
      <trkpt lat="43.86682" lon="5.22146">
        <ele>203.9</ele>
        <time>2013-11-15T11:40:14Z</time>
      </trkpt>
      <trkpt lat="43.86702" lon="5.22152">
        <ele>205.4</ele>
        <time>2013-11-15T11:40:31Z</time>
      </trkpt>
      <trkpt lat="43.86716" lon="5.22153">
        <ele>207.3</ele>
        <time>2013-11-15T11:40:45Z</time>
      </trkpt>
      <trkpt lat="43.86732" lon="5.22153">
        <ele>207.3</ele>
        <time>2013-11-15T11:41:01Z</time>
      </trkpt>
      <trkpt lat="43.86747" lon="5.22153">
        <ele>209.2</ele>
        <time>2013-11-15T11:41:14Z</time>
      </trkpt>
      <trkpt lat="43.86761" lon="5.22155">
        <ele>210.2</ele>
        <time>2013-11-15T11:41:27Z</time>
      </trkpt>
      <trkpt lat="43.86773" lon="5.22154">
        <ele>210.7</ele>
        <time>2013-11-15T11:41:41Z</time>
      </trkpt>
      <trkpt lat="43.86778" lon="5.22153">
        <ele>211.2</ele>
        <time>2013-11-15T11:41:53Z</time>
      </trkpt>
      <trkpt lat="43.86791" lon="5.22151">
        <ele>213.1</ele>
        <time>2013-11-15T11:42:07Z</time>
      </trkpt>
      <trkpt lat="43.86807" lon="5.22148">
        <ele>214.5</ele>
        <time>2013-11-15T11:42:22Z</time>
      </trkpt>
      <trkpt lat="43.86821" lon="5.22133">
        <ele>216.4</ele>
        <time>2013-11-15T11:42:38Z</time>
      </trkpt>
      <trkpt lat="43.86823" lon="5.2213">
        <ele>216.9</ele>
        <time>2013-11-15T11:42:50Z</time>
      </trkpt>
      <trkpt lat="43.86828" lon="5.22124">
        <ele>217.4</ele>
        <time>2013-11-15T11:43:03Z</time>
      </trkpt>
      <trkpt lat="43.86838" lon="5.22114">
        <ele>217.9</ele>
        <time>2013-11-15T11:43:17Z</time>
      </trkpt>
      <trkpt lat="43.86839" lon="5.22113">
        <ele>218.4</ele>
        <time>2013-11-15T11:43:18Z</time>
      </trkpt>
      <trkpt lat="43.86841" lon="5.22111">
        <ele>218.4</ele>
        <time>2013-11-15T11:43:20Z</time>
      </trkpt>
      <trkpt lat="43.86855" lon="5.22096">
        <ele>218.8</ele>
        <time>2013-11-15T11:43:36Z</time>
      </trkpt>
      <trkpt lat="43.86858" lon="5.22092">
        <ele>219.3</ele>
        <time>2013-11-15T11:43:40Z</time>
      </trkpt>
      <trkpt lat="43.86862" lon="5.22092">
        <ele>219.3</ele>
        <time>2013-11-15T11:43:51Z</time>
      </trkpt>
      <trkpt lat="43.8686" lon="5.22094">
        <ele>219.8</ele>
        <time>2013-11-15T11:44:10Z</time>
      </trkpt>
      <trkpt lat="43.86859" lon="5.22094">
        <ele>218.4</ele>
        <time>2013-11-15T11:44:31Z</time>
      </trkpt>
      <trkpt lat="43.86858" lon="5.22094">
        <ele>219.8</ele>
        <time>2013-11-15T11:45:00Z</time>
      </trkpt>
      <trkpt lat="43.86858" lon="5.22094">
        <ele>219.8</ele>
        <time>2013-11-15T11:45:29Z</time>
      </trkpt>
      <trkpt lat="43.86863" lon="5.22087">
        <ele>219.8</ele>
        <time>2013-11-15T11:45:42Z</time>
      </trkpt>
      <trkpt lat="43.86872" lon="5.22078">
        <ele>220.3</ele>
        <time>2013-11-15T11:45:56Z</time>
      </trkpt>
      <trkpt lat="43.8688" lon="5.22073">
        <ele>220.8</ele>
        <time>2013-11-15T11:46:06Z</time>
      </trkpt>
      <trkpt lat="43.86888" lon="5.22064">
        <ele>221.2</ele>
        <time>2013-11-15T11:46:19Z</time>
      </trkpt>
      <trkpt lat="43.86891" lon="5.22063">
        <ele>221.2</ele>
        <time>2013-11-15T11:46:30Z</time>
      </trkpt>
      <trkpt lat="43.86893" lon="5.22062">
        <ele>221.2</ele>
        <time>2013-11-15T11:46:46Z</time>
      </trkpt>
      <trkpt lat="43.86893" lon="5.22062">
        <ele>221.2</ele>
        <time>2013-11-15T11:47:02Z</time>
      </trkpt>
      <trkpt lat="43.86894" lon="5.2206">
        <ele>221.2</ele>
        <time>2013-11-15T11:47:18Z</time>
      </trkpt>
      <trkpt lat="43.86902" lon="5.22049">
        <ele>221.7</ele>
        <time>2013-11-15T11:47:30Z</time>
      </trkpt>
      <trkpt lat="43.86919" lon="5.2204">
        <ele>222.2</ele>
        <time>2013-11-15T11:47:45Z</time>
      </trkpt>
      <trkpt lat="43.86931" lon="5.22033">
        <ele>223.2</ele>
        <time>2013-11-15T11:47:59Z</time>
      </trkpt>
      <trkpt lat="43.86935" lon="5.2203">
        <ele>223.6</ele>
        <time>2013-11-15T11:48:04Z</time>
      </trkpt>
      <trkpt lat="43.86946" lon="5.22024">
        <ele>224.1</ele>
        <time>2013-11-15T11:48:15Z</time>
      </trkpt>
      <trkpt lat="43.86957" lon="5.22017">
        <ele>224.6</ele>
        <time>2013-11-15T11:48:26Z</time>
      </trkpt>
      <trkpt lat="43.86966" lon="5.22012">
        <ele>225.1</ele>
        <time>2013-11-15T11:48:33Z</time>
      </trkpt>
      <trkpt lat="43.8697" lon="5.2201">
        <ele>225.1</ele>
        <time>2013-11-15T11:48:38Z</time>
      </trkpt>
      <trkpt lat="43.86984" lon="5.22005">
        <ele>226.1</ele>
        <time>2013-11-15T11:48:50Z</time>
      </trkpt>
      <trkpt lat="43.86989" lon="5.22001">
        <ele>226.5</ele>
        <time>2013-11-15T11:48:58Z</time>
      </trkpt>
      <trkpt lat="43.86994" lon="5.21999">
        <ele>226.5</ele>
        <time>2013-11-15T11:49:02Z</time>
      </trkpt>
      <trkpt lat="43.87001" lon="5.21997">
        <ele>227</ele>
        <time>2013-11-15T11:49:07Z</time>
      </trkpt>
      <trkpt lat="43.87006" lon="5.21995">
        <ele>227.5</ele>
        <time>2013-11-15T11:49:11Z</time>
      </trkpt>
      <trkpt lat="43.87021" lon="5.2199">
        <ele>228</ele>
        <time>2013-11-15T11:49:24Z</time>
      </trkpt>
      <trkpt lat="43.87025" lon="5.21989">
        <ele>228</ele>
        <time>2013-11-15T11:49:27Z</time>
      </trkpt>
      <trkpt lat="43.87029" lon="5.21988">
        <ele>228.5</ele>
        <time>2013-11-15T11:49:30Z</time>
      </trkpt>
      <trkpt lat="43.87033" lon="5.21987">
        <ele>228.5</ele>
        <time>2013-11-15T11:49:36Z</time>
      </trkpt>
      <trkpt lat="43.87046" lon="5.21984">
        <ele>228.9</ele>
        <time>2013-11-15T11:49:50Z</time>
      </trkpt>
      <trkpt lat="43.87059" lon="5.21981">
        <ele>229.4</ele>
        <time>2013-11-15T11:50:01Z</time>
      </trkpt>
      <trkpt lat="43.87076" lon="5.2198">
        <ele>229.9</ele>
        <time>2013-11-15T11:50:15Z</time>
      </trkpt>
      <trkpt lat="43.87089" lon="5.21978">
        <ele>229.4</ele>
        <time>2013-11-15T11:50:27Z</time>
      </trkpt>
      <trkpt lat="43.871" lon="5.21979">
        <ele>228.9</ele>
        <time>2013-11-15T11:50:39Z</time>
      </trkpt>
      <trkpt lat="43.87114" lon="5.21983">
        <ele>228.5</ele>
        <time>2013-11-15T11:50:50Z</time>
      </trkpt>
      <trkpt lat="43.8712" lon="5.21985">
        <ele>228.5</ele>
        <time>2013-11-15T11:50:54Z</time>
      </trkpt>
      <trkpt lat="43.87134" lon="5.21989">
        <ele>228</ele>
        <time>2013-11-15T11:51:09Z</time>
      </trkpt>
      <trkpt lat="43.87138" lon="5.2199">
        <ele>227.5</ele>
        <time>2013-11-15T11:51:23Z</time>
      </trkpt>
      <trkpt lat="43.8714" lon="5.2199">
        <ele>227</ele>
        <time>2013-11-15T11:51:25Z</time>
      </trkpt>
      <trkpt lat="43.8716" lon="5.21988">
        <ele>225.6</ele>
        <time>2013-11-15T11:51:40Z</time>
      </trkpt>
      <trkpt lat="43.87164" lon="5.21988">
        <ele>226.1</ele>
        <time>2013-11-15T11:51:43Z</time>
      </trkpt>
      <trkpt lat="43.8718" lon="5.21984">
        <ele>224.1</ele>
        <time>2013-11-15T11:51:59Z</time>
      </trkpt>
      <trkpt lat="43.87183" lon="5.21982">
        <ele>223.6</ele>
        <time>2013-11-15T11:52:02Z</time>
      </trkpt>
      <trkpt lat="43.872" lon="5.21975">
        <ele>221.7</ele>
        <time>2013-11-15T11:52:18Z</time>
      </trkpt>
      <trkpt lat="43.87213" lon="5.2197">
        <ele>220.3</ele>
        <time>2013-11-15T11:52:30Z</time>
      </trkpt>
      <trkpt lat="43.87226" lon="5.21964">
        <ele>218.8</ele>
        <time>2013-11-15T11:52:45Z</time>
      </trkpt>
      <trkpt lat="43.87232" lon="5.21961">
        <ele>217.4</ele>
        <time>2013-11-15T11:53:01Z</time>
      </trkpt>
      <trkpt lat="43.87234" lon="5.21961">
        <ele>216.4</ele>
        <time>2013-11-15T11:53:04Z</time>
      </trkpt>
      <trkpt lat="43.87252" lon="5.21962">
        <ele>214.5</ele>
        <time>2013-11-15T11:53:18Z</time>
      </trkpt>
      <trkpt lat="43.87253" lon="5.21962">
        <ele>214.5</ele>
        <time>2013-11-15T11:53:19Z</time>
      </trkpt>
      <trkpt lat="43.87257" lon="5.21965">
        <ele>214</ele>
        <time>2013-11-15T11:53:23Z</time>
      </trkpt>
      <trkpt lat="43.87256" lon="5.21961">
        <ele>214.5</ele>
        <time>2013-11-15T11:53:37Z</time>
      </trkpt>
      <trkpt lat="43.87256" lon="5.21961">
        <ele>214.5</ele>
        <time>2013-11-15T11:53:42Z</time>
      </trkpt>
      <trkpt lat="43.87248" lon="5.2196">
        <ele>215.5</ele>
        <time>2013-11-15T11:53:48Z</time>
      </trkpt>
      <trkpt lat="43.87228" lon="5.21965">
        <ele>218.4</ele>
        <time>2013-11-15T11:54:05Z</time>
      </trkpt>
      <trkpt lat="43.87212" lon="5.21974">
        <ele>219.8</ele>
        <time>2013-11-15T11:54:19Z</time>
      </trkpt>
      <trkpt lat="43.87216" lon="5.21984">
        <ele>220.8</ele>
        <time>2013-11-15T11:54:32Z</time>
      </trkpt>
      <trkpt lat="43.87222" lon="5.2199">
        <ele>221.7</ele>
        <time>2013-11-15T11:54:40Z</time>
      </trkpt>
      <trkpt lat="43.87226" lon="5.21996">
        <ele>222.2</ele>
        <time>2013-11-15T11:54:45Z</time>
      </trkpt>
      <trkpt lat="43.87227" lon="5.22002">
        <ele>221.7</ele>
        <time>2013-11-15T11:54:49Z</time>
      </trkpt>
      <trkpt lat="43.87229" lon="5.22014">
        <ele>221.2</ele>
        <time>2013-11-15T11:54:57Z</time>
      </trkpt>
      <trkpt lat="43.8723" lon="5.22021">
        <ele>221.2</ele>
        <time>2013-11-15T11:55:03Z</time>
      </trkpt>
      <trkpt lat="43.87231" lon="5.22026">
        <ele>221.2</ele>
        <time>2013-11-15T11:55:06Z</time>
      </trkpt>
      <trkpt lat="43.87232" lon="5.22033">
        <ele>221.2</ele>
        <time>2013-11-15T11:55:11Z</time>
      </trkpt>
      <trkpt lat="43.87233" lon="5.22075">
        <ele>223.2</ele>
        <time>2013-11-15T11:55:32Z</time>
      </trkpt>
      <trkpt lat="43.8724" lon="5.22106">
        <ele>222.2</ele>
        <time>2013-11-15T11:55:51Z</time>
      </trkpt>
      <trkpt lat="43.87244" lon="5.22122">
        <ele>222.2</ele>
        <time>2013-11-15T11:56:08Z</time>
      </trkpt>
      <trkpt lat="43.87241" lon="5.22129">
        <ele>222.7</ele>
        <time>2013-11-15T11:56:25Z</time>
      </trkpt>
      <trkpt lat="43.87234" lon="5.22139">
        <ele>223.6</ele>
        <time>2013-11-15T11:56:46Z</time>
      </trkpt>
      <trkpt lat="43.87232" lon="5.22141">
        <ele>224.6</ele>
        <time>2013-11-15T11:57:02Z</time>
      </trkpt>
      <trkpt lat="43.87229" lon="5.22144">
        <ele>225.1</ele>
        <time>2013-11-15T11:57:17Z</time>
      </trkpt>
      <trkpt lat="43.87227" lon="5.22138">
        <ele>225.1</ele>
        <time>2013-11-15T11:57:33Z</time>
      </trkpt>
      <trkpt lat="43.87226" lon="5.22134">
        <ele>225.1</ele>
        <time>2013-11-15T11:57:53Z</time>
      </trkpt>
      <trkpt lat="43.87229" lon="5.22132">
        <ele>225.1</ele>
        <time>2013-11-15T11:58:07Z</time>
      </trkpt>
      <trkpt lat="43.87231" lon="5.22129">
        <ele>225.1</ele>
        <time>2013-11-15T11:58:30Z</time>
      </trkpt>
      <trkpt lat="43.87231" lon="5.2213">
        <ele>225.1</ele>
        <time>2013-11-15T11:58:37Z</time>
      </trkpt>
      <trkpt lat="43.87258" lon="5.22179">
        <ele>220.8</ele>
        <time>2013-11-15T12:41:00Z</time>
      </trkpt>
      <trkpt lat="43.87232" lon="5.22122">
        <ele>220.3</ele>
        <time>2013-11-15T12:41:15Z</time>
      </trkpt>
      <trkpt lat="43.87226" lon="5.22113">
        <ele>220.3</ele>
        <time>2013-11-15T12:41:45Z</time>
      </trkpt>
      <trkpt lat="43.87236" lon="5.22124">
        <ele>221.7</ele>
        <time>2013-11-15T12:41:59Z</time>
      </trkpt>
      <trkpt lat="43.8724" lon="5.22133">
        <ele>225.1</ele>
        <time>2013-11-15T12:42:17Z</time>
      </trkpt>
      <trkpt lat="43.87239" lon="5.22125">
        <ele>227</ele>
        <time>2013-11-15T12:42:35Z</time>
      </trkpt>
      <trkpt lat="43.87226" lon="5.22118">
        <ele>228.5</ele>
        <time>2013-11-15T12:42:56Z</time>
      </trkpt>
      <trkpt lat="43.87224" lon="5.2212">
        <ele>229.4</ele>
        <time>2013-11-15T12:43:17Z</time>
      </trkpt>
      <trkpt lat="43.87228" lon="5.22131">
        <ele>230.4</ele>
        <time>2013-11-15T12:43:47Z</time>
      </trkpt>
      <trkpt lat="43.87236" lon="5.22127">
        <ele>232.8</ele>
        <time>2013-11-15T12:44:06Z</time>
      </trkpt>
      <trkpt lat="43.87232" lon="5.22128">
        <ele>235.7</ele>
        <time>2013-11-15T12:44:29Z</time>
      </trkpt>
      <trkpt lat="43.87227" lon="5.22118">
        <ele>235.7</ele>
        <time>2013-11-15T12:44:45Z</time>
      </trkpt>
      <trkpt lat="43.87227" lon="5.22124">
        <ele>236.1</ele>
        <time>2013-11-15T12:44:49Z</time>
      </trkpt>
      <trkpt lat="43.87213" lon="5.22135">
        <ele>235.7</ele>
        <time>2013-11-15T12:45:07Z</time>
      </trkpt>
      <trkpt lat="43.87213" lon="5.2214">
        <ele>236.1</ele>
        <time>2013-11-15T12:45:16Z</time>
      </trkpt>
      <trkpt lat="43.87229" lon="5.22134">
        <ele>236.6</ele>
        <time>2013-11-15T12:45:24Z</time>
      </trkpt>
      <trkpt lat="43.87233" lon="5.22135">
        <ele>236.1</ele>
        <time>2013-11-15T12:45:47Z</time>
      </trkpt>
      <trkpt lat="43.87233" lon="5.22135">
        <ele>236.1</ele>
        <time>2013-11-15T12:45:53Z</time>
      </trkpt>
      <trkpt lat="43.87242" lon="5.22159">
        <ele>235.7</ele>
        <time>2013-11-15T12:46:10Z</time>
      </trkpt>
      <trkpt lat="43.87244" lon="5.22161">
        <ele>236.1</ele>
        <time>2013-11-15T12:46:12Z</time>
      </trkpt>
      <trkpt lat="43.87264" lon="5.22169">
        <ele>234.2</ele>
        <time>2013-11-15T12:46:29Z</time>
      </trkpt>
      <trkpt lat="43.87266" lon="5.22167">
        <ele>237.6</ele>
        <time>2013-11-15T12:46:30Z</time>
      </trkpt>
      <trkpt lat="43.87267" lon="5.22166">
        <ele>237.6</ele>
        <time>2013-11-15T12:46:31Z</time>
      </trkpt>
      <trkpt lat="43.87268" lon="5.22165">
        <ele>236.1</ele>
        <time>2013-11-15T12:46:32Z</time>
      </trkpt>
      <trkpt lat="43.87257" lon="5.22151">
        <ele>236.1</ele>
        <time>2013-11-15T12:46:47Z</time>
      </trkpt>
      <trkpt lat="43.87246" lon="5.22136">
        <ele>235.7</ele>
        <time>2013-11-15T12:47:09Z</time>
      </trkpt>
      <trkpt lat="43.87242" lon="5.22133">
        <ele>235.7</ele>
        <time>2013-11-15T12:47:35Z</time>
      </trkpt>
      <trkpt lat="43.87242" lon="5.22132">
        <ele>235.7</ele>
        <time>2013-11-15T12:48:01Z</time>
      </trkpt>
      <trkpt lat="43.87244" lon="5.22129">
        <ele>236.1</ele>
        <time>2013-11-15T12:48:27Z</time>
      </trkpt>
      <trkpt lat="43.8724" lon="5.22132">
        <ele>236.1</ele>
        <time>2013-11-15T12:48:48Z</time>
      </trkpt>
      <trkpt lat="43.87241" lon="5.22131">
        <ele>236.6</ele>
        <time>2013-11-15T12:49:09Z</time>
      </trkpt>
      <trkpt lat="43.87244" lon="5.22137">
        <ele>236.6</ele>
        <time>2013-11-15T12:49:23Z</time>
      </trkpt>
      <trkpt lat="43.87244" lon="5.22138">
        <ele>236.6</ele>
        <time>2013-11-15T12:49:25Z</time>
      </trkpt>
      <trkpt lat="43.87243" lon="5.22136">
        <ele>237.1</ele>
        <time>2013-11-15T12:49:43Z</time>
      </trkpt>
      <trkpt lat="43.87242" lon="5.22138">
        <ele>236.6</ele>
        <time>2013-11-15T12:50:04Z</time>
      </trkpt>
      <trkpt lat="43.87241" lon="5.22135">
        <ele>235.7</ele>
        <time>2013-11-15T12:50:19Z</time>
      </trkpt>
      <trkpt lat="43.87244" lon="5.2213">
        <ele>233.7</ele>
        <time>2013-11-15T12:50:32Z</time>
      </trkpt>
      <trkpt lat="43.87252" lon="5.22134">
        <ele>233.3</ele>
        <time>2013-11-15T12:50:44Z</time>
      </trkpt>
      <trkpt lat="43.87264" lon="5.22146">
        <ele>233.7</ele>
        <time>2013-11-15T12:50:57Z</time>
      </trkpt>
      <trkpt lat="43.87268" lon="5.22161">
        <ele>233.3</ele>
        <time>2013-11-15T12:51:10Z</time>
      </trkpt>
      <trkpt lat="43.87273" lon="5.22177">
        <ele>232.8</ele>
        <time>2013-11-15T12:51:24Z</time>
      </trkpt>
      <trkpt lat="43.87274" lon="5.22182">
        <ele>232.3</ele>
        <time>2013-11-15T12:51:31Z</time>
      </trkpt>
      <trkpt lat="43.87277" lon="5.22199">
        <ele>232.3</ele>
        <time>2013-11-15T12:51:43Z</time>
      </trkpt>
      <trkpt lat="43.87282" lon="5.22203">
        <ele>231.3</ele>
        <time>2013-11-15T12:51:50Z</time>
      </trkpt>
      <trkpt lat="43.87287" lon="5.22217">
        <ele>230.9</ele>
        <time>2013-11-15T12:52:01Z</time>
      </trkpt>
      <trkpt lat="43.87287" lon="5.22219">
        <ele>230.9</ele>
        <time>2013-11-15T12:52:02Z</time>
      </trkpt>
      <trkpt lat="43.87287" lon="5.22222">
        <ele>230.9</ele>
        <time>2013-11-15T12:52:04Z</time>
      </trkpt>
      <trkpt lat="43.87288" lon="5.22239">
        <ele>229.9</ele>
        <time>2013-11-15T12:52:17Z</time>
      </trkpt>
      <trkpt lat="43.87289" lon="5.22258">
        <ele>228.9</ele>
        <time>2013-11-15T12:52:28Z</time>
      </trkpt>
      <trkpt lat="43.87289" lon="5.22279">
        <ele>228</ele>
        <time>2013-11-15T12:52:40Z</time>
      </trkpt>
      <trkpt lat="43.8729" lon="5.22299">
        <ele>227</ele>
        <time>2013-11-15T12:52:52Z</time>
      </trkpt>
      <trkpt lat="43.87293" lon="5.22321">
        <ele>225.1</ele>
        <time>2013-11-15T12:53:06Z</time>
      </trkpt>
      <trkpt lat="43.87296" lon="5.22337">
        <ele>223.2</ele>
        <time>2013-11-15T12:53:21Z</time>
      </trkpt>
      <trkpt lat="43.873" lon="5.22336">
        <ele>222.2</ele>
        <time>2013-11-15T12:53:33Z</time>
      </trkpt>
      <trkpt lat="43.873" lon="5.22338">
        <ele>221.7</ele>
        <time>2013-11-15T12:53:46Z</time>
      </trkpt>
      <trkpt lat="43.87307" lon="5.22338">
        <ele>220.8</ele>
        <time>2013-11-15T12:54:04Z</time>
      </trkpt>
      <trkpt lat="43.87319" lon="5.22339">
        <ele>218.8</ele>
        <time>2013-11-15T12:54:16Z</time>
      </trkpt>
      <trkpt lat="43.87331" lon="5.22343">
        <ele>216.9</ele>
        <time>2013-11-15T12:54:29Z</time>
      </trkpt>
      <trkpt lat="43.87338" lon="5.2235">
        <ele>216.4</ele>
        <time>2013-11-15T12:54:35Z</time>
      </trkpt>
      <trkpt lat="43.87342" lon="5.22356">
        <ele>216</ele>
        <time>2013-11-15T12:54:40Z</time>
      </trkpt>
      <trkpt lat="43.87343" lon="5.22368">
        <ele>216</ele>
        <time>2013-11-15T12:54:53Z</time>
      </trkpt>
      <trkpt lat="43.87347" lon="5.22381">
        <ele>215</ele>
        <time>2013-11-15T12:55:04Z</time>
      </trkpt>
      <trkpt lat="43.87348" lon="5.22386">
        <ele>215</ele>
        <time>2013-11-15T12:55:07Z</time>
      </trkpt>
      <trkpt lat="43.87355" lon="5.22397">
        <ele>213.1</ele>
        <time>2013-11-15T12:55:19Z</time>
      </trkpt>
      <trkpt lat="43.87365" lon="5.224">
        <ele>210.7</ele>
        <time>2013-11-15T12:55:30Z</time>
      </trkpt>
      <trkpt lat="43.87373" lon="5.22402">
        <ele>208.7</ele>
        <time>2013-11-15T12:55:44Z</time>
      </trkpt>
      <trkpt lat="43.87381" lon="5.22404">
        <ele>207.8</ele>
        <time>2013-11-15T12:55:56Z</time>
      </trkpt>
      <trkpt lat="43.87387" lon="5.22405">
        <ele>207.3</ele>
        <time>2013-11-15T12:56:16Z</time>
      </trkpt>
      <trkpt lat="43.87391" lon="5.22408">
        <ele>205.9</ele>
        <time>2013-11-15T12:56:30Z</time>
      </trkpt>
      <trkpt lat="43.87396" lon="5.2241">
        <ele>204.4</ele>
        <time>2013-11-15T12:56:42Z</time>
      </trkpt>
      <trkpt lat="43.87403" lon="5.22412">
        <ele>202.5</ele>
        <time>2013-11-15T12:56:55Z</time>
      </trkpt>
      <trkpt lat="43.87411" lon="5.22416">
        <ele>200.6</ele>
        <time>2013-11-15T12:57:07Z</time>
      </trkpt>
      <trkpt lat="43.87422" lon="5.22422">
        <ele>199.6</ele>
        <time>2013-11-15T12:57:22Z</time>
      </trkpt>
      <trkpt lat="43.8743" lon="5.22424">
        <ele>199.1</ele>
        <time>2013-11-15T12:57:35Z</time>
      </trkpt>
      <trkpt lat="43.87437" lon="5.22426">
        <ele>198.2</ele>
        <time>2013-11-15T12:57:55Z</time>
      </trkpt>
      <trkpt lat="43.87453" lon="5.22429">
        <ele>197.2</ele>
        <time>2013-11-15T12:58:07Z</time>
      </trkpt>
      <trkpt lat="43.87465" lon="5.22433">
        <ele>196.3</ele>
        <time>2013-11-15T12:58:22Z</time>
      </trkpt>
      <trkpt lat="43.87477" lon="5.22437">
        <ele>194.8</ele>
        <time>2013-11-15T12:58:34Z</time>
      </trkpt>
      <trkpt lat="43.8749" lon="5.22445">
        <ele>192.9</ele>
        <time>2013-11-15T12:58:47Z</time>
      </trkpt>
      <trkpt lat="43.87501" lon="5.2245">
        <ele>190.5</ele>
        <time>2013-11-15T12:59:00Z</time>
      </trkpt>
      <trkpt lat="43.87515" lon="5.22456">
        <ele>187.6</ele>
        <time>2013-11-15T12:59:15Z</time>
      </trkpt>
      <trkpt lat="43.87529" lon="5.22463">
        <ele>184.7</ele>
        <time>2013-11-15T12:59:29Z</time>
      </trkpt>
      <trkpt lat="43.87538" lon="5.22472">
        <ele>181.8</ele>
        <time>2013-11-15T12:59:43Z</time>
      </trkpt>
      <trkpt lat="43.87548" lon="5.22476">
        <ele>178.9</ele>
        <time>2013-11-15T12:59:58Z</time>
      </trkpt>
      <trkpt lat="43.87551" lon="5.22477">
        <ele>178.5</ele>
        <time>2013-11-15T13:00:13Z</time>
      </trkpt>
      <trkpt lat="43.87555" lon="5.2248">
        <ele>177.5</ele>
        <time>2013-11-15T13:00:31Z</time>
      </trkpt>
      <trkpt lat="43.87564" lon="5.22486">
        <ele>175.1</ele>
        <time>2013-11-15T13:00:42Z</time>
      </trkpt>
      <trkpt lat="43.87573" lon="5.22492">
        <ele>172.2</ele>
        <time>2013-11-15T13:00:57Z</time>
      </trkpt>
      <trkpt lat="43.87581" lon="5.22498">
        <ele>170.8</ele>
        <time>2013-11-15T13:01:12Z</time>
      </trkpt>
      <trkpt lat="43.87582" lon="5.225">
        <ele>170.8</ele>
        <time>2013-11-15T13:01:32Z</time>
      </trkpt>
      <trkpt lat="43.87583" lon="5.22501">
        <ele>170.3</ele>
        <time>2013-11-15T13:01:33Z</time>
      </trkpt>
      <trkpt lat="43.87592" lon="5.2251">
        <ele>168.4</ele>
        <time>2013-11-15T13:01:47Z</time>
      </trkpt>
      <trkpt lat="43.87593" lon="5.2251">
        <ele>168.4</ele>
        <time>2013-11-15T13:01:52Z</time>
      </trkpt>
      <trkpt lat="43.87596" lon="5.22518">
        <ele>167.4</ele>
        <time>2013-11-15T13:02:04Z</time>
      </trkpt>
      <trkpt lat="43.87598" lon="5.22522">
        <ele>166.9</ele>
        <time>2013-11-15T13:02:21Z</time>
      </trkpt>
      <trkpt lat="43.87598" lon="5.22523">
        <ele>166.9</ele>
        <time>2013-11-15T13:02:22Z</time>
      </trkpt>
      <trkpt lat="43.87602" lon="5.22535">
        <ele>166.5</ele>
        <time>2013-11-15T13:02:31Z</time>
      </trkpt>
      <trkpt lat="43.87601" lon="5.2255">
        <ele>166</ele>
        <time>2013-11-15T13:02:41Z</time>
      </trkpt>
      <trkpt lat="43.87603" lon="5.22575">
        <ele>165</ele>
        <time>2013-11-15T13:02:57Z</time>
      </trkpt>
      <trkpt lat="43.87603" lon="5.22577">
        <ele>164.5</ele>
        <time>2013-11-15T13:02:58Z</time>
      </trkpt>
      <trkpt lat="43.87607" lon="5.22586">
        <ele>164</ele>
        <time>2013-11-15T13:03:05Z</time>
      </trkpt>
      <trkpt lat="43.87608" lon="5.22596">
        <ele>163.6</ele>
        <time>2013-11-15T13:03:12Z</time>
      </trkpt>
      <trkpt lat="43.87611" lon="5.22613">
        <ele>163.1</ele>
        <time>2013-11-15T13:03:21Z</time>
      </trkpt>
      <trkpt lat="43.87611" lon="5.22618">
        <ele>162.1</ele>
        <time>2013-11-15T13:03:25Z</time>
      </trkpt>
      <trkpt lat="43.87605" lon="5.22628">
        <ele>162.6</ele>
        <time>2013-11-15T13:03:35Z</time>
      </trkpt>
      <trkpt lat="43.87602" lon="5.22632">
        <ele>162.1</ele>
        <time>2013-11-15T13:03:38Z</time>
      </trkpt>
      <trkpt lat="43.87596" lon="5.22646">
        <ele>161.6</ele>
        <time>2013-11-15T13:03:50Z</time>
      </trkpt>
      <trkpt lat="43.87588" lon="5.2266">
        <ele>161.6</ele>
        <time>2013-11-15T13:04:04Z</time>
      </trkpt>
      <trkpt lat="43.8758" lon="5.22674">
        <ele>161.2</ele>
        <time>2013-11-15T13:04:15Z</time>
      </trkpt>
      <trkpt lat="43.87573" lon="5.22693">
        <ele>160.7</ele>
        <time>2013-11-15T13:04:29Z</time>
      </trkpt>
      <trkpt lat="43.87565" lon="5.22714">
        <ele>160.2</ele>
        <time>2013-11-15T13:04:41Z</time>
      </trkpt>
      <trkpt lat="43.8756" lon="5.22723">
        <ele>160.2</ele>
        <time>2013-11-15T13:04:49Z</time>
      </trkpt>
      <trkpt lat="43.87556" lon="5.2273">
        <ele>159.7</ele>
        <time>2013-11-15T13:04:55Z</time>
      </trkpt>
      <trkpt lat="43.87541" lon="5.22752">
        <ele>159.2</ele>
        <time>2013-11-15T13:05:11Z</time>
      </trkpt>
      <trkpt lat="43.87541" lon="5.22753">
        <ele>158.8</ele>
        <time>2013-11-15T13:05:12Z</time>
      </trkpt>
      <trkpt lat="43.87534" lon="5.2276">
        <ele>158.3</ele>
        <time>2013-11-15T13:05:19Z</time>
      </trkpt>
      <trkpt lat="43.87528" lon="5.22769">
        <ele>157.8</ele>
        <time>2013-11-15T13:05:26Z</time>
      </trkpt>
      <trkpt lat="43.87516" lon="5.22789">
        <ele>156.8</ele>
        <time>2013-11-15T13:05:37Z</time>
      </trkpt>
      <trkpt lat="43.87515" lon="5.22792">
        <ele>156.8</ele>
        <time>2013-11-15T13:05:39Z</time>
      </trkpt>
      <trkpt lat="43.87507" lon="5.22804">
        <ele>156.8</ele>
        <time>2013-11-15T13:05:47Z</time>
      </trkpt>
      <trkpt lat="43.87497" lon="5.22816">
        <ele>156.4</ele>
        <time>2013-11-15T13:05:57Z</time>
      </trkpt>
      <trkpt lat="43.8749" lon="5.22824">
        <ele>156.4</ele>
        <time>2013-11-15T13:06:06Z</time>
      </trkpt>
      <trkpt lat="43.87479" lon="5.22844">
        <ele>155.4</ele>
        <time>2013-11-15T13:06:23Z</time>
      </trkpt>
      <trkpt lat="43.87478" lon="5.22845">
        <ele>155.4</ele>
        <time>2013-11-15T13:06:24Z</time>
      </trkpt>
      <trkpt lat="43.87472" lon="5.2285">
        <ele>155.4</ele>
        <time>2013-11-15T13:06:32Z</time>
      </trkpt>
      <trkpt lat="43.87462" lon="5.22855">
        <ele>155.4</ele>
        <time>2013-11-15T13:06:41Z</time>
      </trkpt>
      <trkpt lat="43.87452" lon="5.22861">
        <ele>155.4</ele>
        <time>2013-11-15T13:06:49Z</time>
      </trkpt>
      <trkpt lat="43.87446" lon="5.22863">
        <ele>154.9</ele>
        <time>2013-11-15T13:06:55Z</time>
      </trkpt>
      <trkpt lat="43.8744" lon="5.22866">
        <ele>154.9</ele>
        <time>2013-11-15T13:07:00Z</time>
      </trkpt>
      <trkpt lat="43.87435" lon="5.22869">
        <ele>154.9</ele>
        <time>2013-11-15T13:07:05Z</time>
      </trkpt>
      <trkpt lat="43.8743" lon="5.22871">
        <ele>154.9</ele>
        <time>2013-11-15T13:07:09Z</time>
      </trkpt>
      <trkpt lat="43.87427" lon="5.22874">
        <ele>154.9</ele>
        <time>2013-11-15T13:07:12Z</time>
      </trkpt>
      <trkpt lat="43.87414" lon="5.22878">
        <ele>154.9</ele>
        <time>2013-11-15T13:07:23Z</time>
      </trkpt>
      <trkpt lat="43.87412" lon="5.22881">
        <ele>154.4</ele>
        <time>2013-11-15T13:07:26Z</time>
      </trkpt>
      <trkpt lat="43.874" lon="5.22884">
        <ele>154.4</ele>
        <time>2013-11-15T13:07:38Z</time>
      </trkpt>
      <trkpt lat="43.87395" lon="5.22885">
        <ele>154.4</ele>
        <time>2013-11-15T13:07:45Z</time>
      </trkpt>
      <trkpt lat="43.8738" lon="5.22892">
        <ele>154.9</ele>
        <time>2013-11-15T13:07:58Z</time>
      </trkpt>
      <trkpt lat="43.87376" lon="5.22895">
        <ele>155.4</ele>
        <time>2013-11-15T13:08:01Z</time>
      </trkpt>
      <trkpt lat="43.87356" lon="5.22907">
        <ele>154.9</ele>
        <time>2013-11-15T13:08:17Z</time>
      </trkpt>
      <trkpt lat="43.87347" lon="5.22913">
        <ele>154.9</ele>
        <time>2013-11-15T13:08:25Z</time>
      </trkpt>
      <trkpt lat="43.87341" lon="5.22914">
        <ele>155.4</ele>
        <time>2013-11-15T13:08:29Z</time>
      </trkpt>
      <trkpt lat="43.87339" lon="5.22917">
        <ele>155.4</ele>
        <time>2013-11-15T13:08:31Z</time>
      </trkpt>
      <trkpt lat="43.87335" lon="5.22924">
        <ele>155.4</ele>
        <time>2013-11-15T13:08:36Z</time>
      </trkpt>
      <trkpt lat="43.87322" lon="5.22939">
        <ele>155.4</ele>
        <time>2013-11-15T13:08:49Z</time>
      </trkpt>
      <trkpt lat="43.87319" lon="5.2294">
        <ele>155.4</ele>
        <time>2013-11-15T13:08:52Z</time>
      </trkpt>
      <trkpt lat="43.87307" lon="5.22945">
        <ele>154.4</ele>
        <time>2013-11-15T13:09:02Z</time>
      </trkpt>
      <trkpt lat="43.87293" lon="5.22948">
        <ele>154</ele>
        <time>2013-11-15T13:09:14Z</time>
      </trkpt>
      <trkpt lat="43.87292" lon="5.22949">
        <ele>154</ele>
        <time>2013-11-15T13:09:15Z</time>
      </trkpt>
      <trkpt lat="43.87289" lon="5.2295">
        <ele>153.5</ele>
        <time>2013-11-15T13:09:17Z</time>
      </trkpt>
      <trkpt lat="43.87281" lon="5.22953">
        <ele>153</ele>
        <time>2013-11-15T13:09:23Z</time>
      </trkpt>
      <trkpt lat="43.87266" lon="5.22964">
        <ele>152.5</ele>
        <time>2013-11-15T13:09:33Z</time>
      </trkpt>
      <trkpt lat="43.87253" lon="5.22972">
        <ele>151.1</ele>
        <time>2013-11-15T13:09:44Z</time>
      </trkpt>
      <trkpt lat="43.8724" lon="5.2298">
        <ele>150.1</ele>
        <time>2013-11-15T13:09:58Z</time>
      </trkpt>
      <trkpt lat="43.87236" lon="5.22984">
        <ele>150.1</ele>
        <time>2013-11-15T13:10:01Z</time>
      </trkpt>
      <trkpt lat="43.87231" lon="5.22987">
        <ele>149.6</ele>
        <time>2013-11-15T13:10:06Z</time>
      </trkpt>
      <trkpt lat="43.87227" lon="5.22987">
        <ele>149.6</ele>
        <time>2013-11-15T13:10:08Z</time>
      </trkpt>
      <trkpt lat="43.87225" lon="5.22988">
        <ele>149.1</ele>
        <time>2013-11-15T13:10:10Z</time>
      </trkpt>
      <trkpt lat="43.8722" lon="5.22994">
        <ele>148.7</ele>
        <time>2013-11-15T13:10:15Z</time>
      </trkpt>
      <trkpt lat="43.87207" lon="5.23001">
        <ele>148.2</ele>
        <time>2013-11-15T13:10:25Z</time>
      </trkpt>
      <trkpt lat="43.87205" lon="5.23002">
        <ele>148.7</ele>
        <time>2013-11-15T13:10:26Z</time>
      </trkpt>
      <trkpt lat="43.87198" lon="5.23003">
        <ele>148.2</ele>
        <time>2013-11-15T13:10:31Z</time>
      </trkpt>
      <trkpt lat="43.87193" lon="5.23012">
        <ele>148.7</ele>
        <time>2013-11-15T13:10:37Z</time>
      </trkpt>
      <trkpt lat="43.87189" lon="5.2301">
        <ele>148.2</ele>
        <time>2013-11-15T13:10:38Z</time>
      </trkpt>
      <trkpt lat="43.87185" lon="5.23009">
        <ele>148.2</ele>
        <time>2013-11-15T13:10:40Z</time>
      </trkpt>
      <trkpt lat="43.87183" lon="5.2301">
        <ele>148.2</ele>
        <time>2013-11-15T13:10:41Z</time>
      </trkpt>
      <trkpt lat="43.87182" lon="5.23011">
        <ele>148.2</ele>
        <time>2013-11-15T13:10:42Z</time>
      </trkpt>
      <trkpt lat="43.87173" lon="5.23019">
        <ele>148.7</ele>
        <time>2013-11-15T13:10:53Z</time>
      </trkpt>
      <trkpt lat="43.87158" lon="5.2304">
        <ele>148.7</ele>
        <time>2013-11-15T13:11:07Z</time>
      </trkpt>
      <trkpt lat="43.87141" lon="5.23043">
        <ele>148.7</ele>
        <time>2013-11-15T13:11:19Z</time>
      </trkpt>
      <trkpt lat="43.8714" lon="5.23044">
        <ele>148.7</ele>
        <time>2013-11-15T13:11:20Z</time>
      </trkpt>
      <trkpt lat="43.87134" lon="5.23049">
        <ele>149.1</ele>
        <time>2013-11-15T13:11:25Z</time>
      </trkpt>
      <trkpt lat="43.87133" lon="5.23049">
        <ele>149.1</ele>
        <time>2013-11-15T13:11:26Z</time>
      </trkpt>
      <trkpt lat="43.87124" lon="5.2306">
        <ele>147.7</ele>
        <time>2013-11-15T13:11:36Z</time>
      </trkpt>
      <trkpt lat="43.87124" lon="5.23061">
        <ele>147.7</ele>
        <time>2013-11-15T13:11:37Z</time>
      </trkpt>
      <trkpt lat="43.87123" lon="5.23062">
        <ele>147.7</ele>
        <time>2013-11-15T13:11:38Z</time>
      </trkpt>
      <trkpt lat="43.87118" lon="5.2307">
        <ele>147.7</ele>
        <time>2013-11-15T13:11:44Z</time>
      </trkpt>
      <trkpt lat="43.87115" lon="5.23074">
        <ele>147.2</ele>
        <time>2013-11-15T13:11:48Z</time>
      </trkpt>
      <trkpt lat="43.87106" lon="5.23091">
        <ele>145.8</ele>
        <time>2013-11-15T13:12:02Z</time>
      </trkpt>
      <trkpt lat="43.87099" lon="5.23097">
        <ele>145.3</ele>
        <time>2013-11-15T13:12:09Z</time>
      </trkpt>
      <trkpt lat="43.87097" lon="5.23099">
        <ele>144.8</ele>
        <time>2013-11-15T13:12:12Z</time>
      </trkpt>
      <trkpt lat="43.87096" lon="5.23101">
        <ele>144.3</ele>
        <time>2013-11-15T13:12:13Z</time>
      </trkpt>
      <trkpt lat="43.87094" lon="5.23101">
        <ele>144.3</ele>
        <time>2013-11-15T13:12:14Z</time>
      </trkpt>
      <trkpt lat="43.87089" lon="5.23103">
        <ele>143.9</ele>
        <time>2013-11-15T13:12:19Z</time>
      </trkpt>
      <trkpt lat="43.87085" lon="5.23108">
        <ele>143.4</ele>
        <time>2013-11-15T13:12:24Z</time>
      </trkpt>
      <trkpt lat="43.87083" lon="5.23109">
        <ele>143.4</ele>
        <time>2013-11-15T13:12:25Z</time>
      </trkpt>
      <trkpt lat="43.87074" lon="5.2311">
        <ele>142.9</ele>
        <time>2013-11-15T13:12:33Z</time>
      </trkpt>
      <trkpt lat="43.87073" lon="5.2311">
        <ele>142.9</ele>
        <time>2013-11-15T13:12:34Z</time>
      </trkpt>
      <trkpt lat="43.87071" lon="5.2311">
        <ele>142.4</ele>
        <time>2013-11-15T13:12:35Z</time>
      </trkpt>
      <trkpt lat="43.87069" lon="5.2311">
        <ele>142.4</ele>
        <time>2013-11-15T13:12:36Z</time>
      </trkpt>
      <trkpt lat="43.87067" lon="5.2311">
        <ele>142.4</ele>
        <time>2013-11-15T13:12:37Z</time>
      </trkpt>
      <trkpt lat="43.87066" lon="5.2311">
        <ele>142.4</ele>
        <time>2013-11-15T13:12:38Z</time>
      </trkpt>
      <trkpt lat="43.87054" lon="5.23111">
        <ele>141.5</ele>
        <time>2013-11-15T13:12:47Z</time>
      </trkpt>
      <trkpt lat="43.87053" lon="5.23112">
        <ele>141.5</ele>
        <time>2013-11-15T13:12:48Z</time>
      </trkpt>
      <trkpt lat="43.87052" lon="5.23113">
        <ele>141.5</ele>
        <time>2013-11-15T13:12:49Z</time>
      </trkpt>
      <trkpt lat="43.87051" lon="5.23113">
        <ele>141.9</ele>
        <time>2013-11-15T13:12:50Z</time>
      </trkpt>
      <trkpt lat="43.8705" lon="5.23115">
        <ele>141.5</ele>
        <time>2013-11-15T13:12:51Z</time>
      </trkpt>
      <trkpt lat="43.8705" lon="5.23116">
        <ele>141</ele>
        <time>2013-11-15T13:12:52Z</time>
      </trkpt>
      <trkpt lat="43.87046" lon="5.23118">
        <ele>141</ele>
        <time>2013-11-15T13:12:55Z</time>
      </trkpt>
      <trkpt lat="43.87043" lon="5.23119">
        <ele>140.5</ele>
        <time>2013-11-15T13:12:57Z</time>
      </trkpt>
      <trkpt lat="43.87042" lon="5.23119">
        <ele>140.5</ele>
        <time>2013-11-15T13:12:58Z</time>
      </trkpt>
      <trkpt lat="43.87041" lon="5.2312">
        <ele>140.5</ele>
        <time>2013-11-15T13:12:59Z</time>
      </trkpt>
      <trkpt lat="43.87039" lon="5.23121">
        <ele>140.5</ele>
        <time>2013-11-15T13:13:00Z</time>
      </trkpt>
      <trkpt lat="43.8704" lon="5.23132">
        <ele>139.1</ele>
        <time>2013-11-15T13:13:08Z</time>
      </trkpt>
      <trkpt lat="43.87041" lon="5.23135">
        <ele>139.1</ele>
        <time>2013-11-15T13:13:10Z</time>
      </trkpt>
      <trkpt lat="43.87041" lon="5.23142">
        <ele>139.1</ele>
        <time>2013-11-15T13:13:14Z</time>
      </trkpt>
      <trkpt lat="43.87046" lon="5.2316">
        <ele>138.6</ele>
        <time>2013-11-15T13:13:29Z</time>
      </trkpt>
      <trkpt lat="43.87051" lon="5.23174">
        <ele>138.6</ele>
        <time>2013-11-15T13:13:40Z</time>
      </trkpt>
      <trkpt lat="43.87051" lon="5.23175">
        <ele>139.1</ele>
        <time>2013-11-15T13:13:41Z</time>
      </trkpt>
      <trkpt lat="43.87053" lon="5.23177">
        <ele>138.6</ele>
        <time>2013-11-15T13:13:43Z</time>
      </trkpt>
      <trkpt lat="43.87053" lon="5.2318">
        <ele>139.1</ele>
        <time>2013-11-15T13:13:44Z</time>
      </trkpt>
      <trkpt lat="43.87055" lon="5.23192">
        <ele>138.6</ele>
        <time>2013-11-15T13:13:53Z</time>
      </trkpt>
      <trkpt lat="43.87055" lon="5.23194">
        <ele>138.1</ele>
        <time>2013-11-15T13:13:54Z</time>
      </trkpt>
      <trkpt lat="43.87053" lon="5.23212">
        <ele>138.1</ele>
        <time>2013-11-15T13:14:07Z</time>
      </trkpt>
      <trkpt lat="43.87054" lon="5.23231">
        <ele>138.1</ele>
        <time>2013-11-15T13:14:22Z</time>
      </trkpt>
      <trkpt lat="43.87054" lon="5.23244">
        <ele>138.1</ele>
        <time>2013-11-15T13:14:29Z</time>
      </trkpt>
      <trkpt lat="43.87054" lon="5.23246">
        <ele>138.1</ele>
        <time>2013-11-15T13:14:30Z</time>
      </trkpt>
      <trkpt lat="43.87055" lon="5.23268">
        <ele>138.6</ele>
        <time>2013-11-15T13:14:44Z</time>
      </trkpt>
      <trkpt lat="43.87053" lon="5.23277">
        <ele>139.5</ele>
        <time>2013-11-15T13:14:50Z</time>
      </trkpt>
      <trkpt lat="43.87053" lon="5.23279">
        <ele>139.5</ele>
        <time>2013-11-15T13:14:51Z</time>
      </trkpt>
      <trkpt lat="43.8705" lon="5.23287">
        <ele>140</ele>
        <time>2013-11-15T13:15:01Z</time>
      </trkpt>
      <trkpt lat="43.87048" lon="5.23294">
        <ele>140.5</ele>
        <time>2013-11-15T13:15:15Z</time>
      </trkpt>
      <trkpt lat="43.87046" lon="5.23294">
        <ele>141</ele>
        <time>2013-11-15T13:15:24Z</time>
      </trkpt>
      <trkpt lat="43.87045" lon="5.23297">
        <ele>140.5</ele>
        <time>2013-11-15T13:15:26Z</time>
      </trkpt>
      <trkpt lat="43.87043" lon="5.23299">
        <ele>140.5</ele>
        <time>2013-11-15T13:15:28Z</time>
      </trkpt>
      <trkpt lat="43.87041" lon="5.233">
        <ele>140.5</ele>
        <time>2013-11-15T13:15:29Z</time>
      </trkpt>
      <trkpt lat="43.8704" lon="5.23301">
        <ele>140.5</ele>
        <time>2013-11-15T13:15:30Z</time>
      </trkpt>
      <trkpt lat="43.87031" lon="5.23305">
        <ele>141</ele>
        <time>2013-11-15T13:15:38Z</time>
      </trkpt>
      <trkpt lat="43.87026" lon="5.23313">
        <ele>140.5</ele>
        <time>2013-11-15T13:15:45Z</time>
      </trkpt>
      <trkpt lat="43.87025" lon="5.23314">
        <ele>141</ele>
        <time>2013-11-15T13:15:46Z</time>
      </trkpt>
      <trkpt lat="43.87024" lon="5.23315">
        <ele>140.5</ele>
        <time>2013-11-15T13:15:47Z</time>
      </trkpt>
      <trkpt lat="43.87012" lon="5.23325">
        <ele>140</ele>
        <time>2013-11-15T13:15:58Z</time>
      </trkpt>
      <trkpt lat="43.87006" lon="5.23351">
        <ele>140</ele>
        <time>2013-11-15T13:16:12Z</time>
      </trkpt>
      <trkpt lat="43.87006" lon="5.23373">
        <ele>140</ele>
        <time>2013-11-15T13:16:24Z</time>
      </trkpt>
      <trkpt lat="43.87011" lon="5.23393">
        <ele>140</ele>
        <time>2013-11-15T13:16:38Z</time>
      </trkpt>
      <trkpt lat="43.87011" lon="5.23395">
        <ele>140</ele>
        <time>2013-11-15T13:16:39Z</time>
      </trkpt>
      <trkpt lat="43.87011" lon="5.23396">
        <ele>140</ele>
        <time>2013-11-15T13:16:40Z</time>
      </trkpt>
      <trkpt lat="43.87011" lon="5.23398">
        <ele>140</ele>
        <time>2013-11-15T13:16:41Z</time>
      </trkpt>
      <trkpt lat="43.87011" lon="5.23401">
        <ele>140</ele>
        <time>2013-11-15T13:16:42Z</time>
      </trkpt>
      <trkpt lat="43.87011" lon="5.23403">
        <ele>140</ele>
        <time>2013-11-15T13:16:43Z</time>
      </trkpt>
      <trkpt lat="43.87012" lon="5.23405">
        <ele>140</ele>
        <time>2013-11-15T13:16:45Z</time>
      </trkpt>
      <trkpt lat="43.87014" lon="5.23424">
        <ele>140.5</ele>
        <time>2013-11-15T13:16:57Z</time>
      </trkpt>
      <trkpt lat="43.87015" lon="5.23428">
        <ele>141</ele>
        <time>2013-11-15T13:16:59Z</time>
      </trkpt>
      <trkpt lat="43.87016" lon="5.2343">
        <ele>141</ele>
        <time>2013-11-15T13:17:01Z</time>
      </trkpt>
      <trkpt lat="43.87025" lon="5.23441">
        <ele>141.9</ele>
        <time>2013-11-15T13:17:12Z</time>
      </trkpt>
      <trkpt lat="43.87025" lon="5.23443">
        <ele>141.9</ele>
        <time>2013-11-15T13:17:13Z</time>
      </trkpt>
      <trkpt lat="43.87033" lon="5.23454">
        <ele>142.4</ele>
        <time>2013-11-15T13:17:23Z</time>
      </trkpt>
      <trkpt lat="43.87036" lon="5.23459">
        <ele>142.4</ele>
        <time>2013-11-15T13:17:27Z</time>
      </trkpt>
      <trkpt lat="43.87043" lon="5.23467">
        <ele>142.9</ele>
        <time>2013-11-15T13:17:35Z</time>
      </trkpt>
      <trkpt lat="43.87044" lon="5.23468">
        <ele>142.9</ele>
        <time>2013-11-15T13:17:36Z</time>
      </trkpt>
      <trkpt lat="43.87045" lon="5.23469">
        <ele>142.9</ele>
        <time>2013-11-15T13:17:37Z</time>
      </trkpt>
      <trkpt lat="43.87048" lon="5.23473">
        <ele>143.4</ele>
        <time>2013-11-15T13:17:53Z</time>
      </trkpt>
      <trkpt lat="43.87048" lon="5.23473">
        <ele>143.4</ele>
        <time>2013-11-15T13:18:07Z</time>
      </trkpt>
      <trkpt lat="43.87048" lon="5.23474">
        <ele>143.9</ele>
        <time>2013-11-15T13:18:24Z</time>
      </trkpt>
      <trkpt lat="43.87049" lon="5.23481">
        <ele>144.3</ele>
        <time>2013-11-15T13:18:35Z</time>
      </trkpt>
      <trkpt lat="43.87046" lon="5.23481">
        <ele>144.3</ele>
        <time>2013-11-15T13:18:40Z</time>
      </trkpt>
      <trkpt lat="43.87045" lon="5.23481">
        <ele>143.9</ele>
        <time>2013-11-15T13:18:41Z</time>
      </trkpt>
      <trkpt lat="43.87043" lon="5.23481">
        <ele>144.3</ele>
        <time>2013-11-15T13:18:42Z</time>
      </trkpt>
      <trkpt lat="43.87042" lon="5.2348">
        <ele>144.3</ele>
        <time>2013-11-15T13:18:43Z</time>
      </trkpt>
      <trkpt lat="43.87033" lon="5.23471">
        <ele>144.3</ele>
        <time>2013-11-15T13:18:56Z</time>
      </trkpt>
      <trkpt lat="43.87032" lon="5.2347">
        <ele>143.9</ele>
        <time>2013-11-15T13:18:57Z</time>
      </trkpt>
      <trkpt lat="43.87025" lon="5.23464">
        <ele>143.9</ele>
        <time>2013-11-15T13:19:08Z</time>
      </trkpt>
      <trkpt lat="43.87019" lon="5.23458">
        <ele>143.9</ele>
        <time>2013-11-15T13:19:14Z</time>
      </trkpt>
      <trkpt lat="43.87014" lon="5.23452">
        <ele>143.9</ele>
        <time>2013-11-15T13:19:21Z</time>
      </trkpt>
      <trkpt lat="43.87013" lon="5.2345">
        <ele>143.9</ele>
        <time>2013-11-15T13:19:22Z</time>
      </trkpt>
      <trkpt lat="43.8701" lon="5.23446">
        <ele>143.9</ele>
        <time>2013-11-15T13:19:26Z</time>
      </trkpt>
      <trkpt lat="43.87009" lon="5.23446">
        <ele>143.9</ele>
        <time>2013-11-15T13:19:27Z</time>
      </trkpt>
      <trkpt lat="43.87004" lon="5.23443">
        <ele>143.9</ele>
        <time>2013-11-15T13:19:31Z</time>
      </trkpt>
      <trkpt lat="43.87003" lon="5.23441">
        <ele>143.4</ele>
        <time>2013-11-15T13:19:32Z</time>
      </trkpt>
      <trkpt lat="43.86999" lon="5.23436">
        <ele>144.3</ele>
        <time>2013-11-15T13:19:38Z</time>
      </trkpt>
      <trkpt lat="43.86988" lon="5.23421">
        <ele>144.3</ele>
        <time>2013-11-15T13:19:51Z</time>
      </trkpt>
      <trkpt lat="43.86974" lon="5.23406">
        <ele>144.3</ele>
        <time>2013-11-15T13:20:05Z</time>
      </trkpt>
      <trkpt lat="43.86957" lon="5.23387">
        <ele>144.3</ele>
        <time>2013-11-15T13:20:21Z</time>
      </trkpt>
      <trkpt lat="43.86944" lon="5.23373">
        <ele>144.3</ele>
        <time>2013-11-15T13:20:34Z</time>
      </trkpt>
      <trkpt lat="43.86935" lon="5.23364">
        <ele>144.3</ele>
        <time>2013-11-15T13:20:45Z</time>
      </trkpt>
      <trkpt lat="43.86934" lon="5.23361">
        <ele>144.3</ele>
        <time>2013-11-15T13:20:47Z</time>
      </trkpt>
      <trkpt lat="43.86932" lon="5.23358">
        <ele>144.3</ele>
        <time>2013-11-15T13:20:50Z</time>
      </trkpt>
      <trkpt lat="43.86931" lon="5.23356">
        <ele>144.8</ele>
        <time>2013-11-15T13:20:51Z</time>
      </trkpt>
      <trkpt lat="43.8693" lon="5.23354">
        <ele>144.3</ele>
        <time>2013-11-15T13:20:52Z</time>
      </trkpt>
      <trkpt lat="43.86929" lon="5.23353">
        <ele>144.3</ele>
        <time>2013-11-15T13:20:53Z</time>
      </trkpt>
      <trkpt lat="43.86928" lon="5.23352">
        <ele>144.3</ele>
        <time>2013-11-15T13:20:54Z</time>
      </trkpt>
      <trkpt lat="43.86912" lon="5.23336">
        <ele>144.3</ele>
        <time>2013-11-15T13:21:10Z</time>
      </trkpt>
      <trkpt lat="43.86895" lon="5.23318">
        <ele>143.9</ele>
        <time>2013-11-15T13:21:26Z</time>
      </trkpt>
      <trkpt lat="43.86885" lon="5.23307">
        <ele>143.9</ele>
        <time>2013-11-15T13:21:37Z</time>
      </trkpt>
      <trkpt lat="43.86881" lon="5.23302">
        <ele>143.9</ele>
        <time>2013-11-15T13:21:41Z</time>
      </trkpt>
      <trkpt lat="43.8688" lon="5.23301">
        <ele>143.9</ele>
        <time>2013-11-15T13:21:42Z</time>
      </trkpt>
      <trkpt lat="43.86877" lon="5.23298">
        <ele>143.4</ele>
        <time>2013-11-15T13:21:46Z</time>
      </trkpt>
      <trkpt lat="43.86863" lon="5.23285">
        <ele>142.9</ele>
        <time>2013-11-15T13:21:59Z</time>
      </trkpt>
      <trkpt lat="43.86848" lon="5.23276">
        <ele>142.9</ele>
        <time>2013-11-15T13:22:13Z</time>
      </trkpt>
      <trkpt lat="43.86836" lon="5.2327">
        <ele>142.9</ele>
        <time>2013-11-15T13:22:27Z</time>
      </trkpt>
      <trkpt lat="43.86832" lon="5.23269">
        <ele>143.4</ele>
        <time>2013-11-15T13:22:42Z</time>
      </trkpt>
      <trkpt lat="43.86811" lon="5.23268">
        <ele>142.9</ele>
        <time>2013-11-15T13:22:59Z</time>
      </trkpt>
      <trkpt lat="43.86809" lon="5.23268">
        <ele>142.9</ele>
        <time>2013-11-15T13:23:00Z</time>
      </trkpt>
      <trkpt lat="43.86807" lon="5.23268">
        <ele>142.9</ele>
        <time>2013-11-15T13:23:01Z</time>
      </trkpt>
      <trkpt lat="43.86806" lon="5.23268">
        <ele>142.9</ele>
        <time>2013-11-15T13:23:02Z</time>
      </trkpt>
      <trkpt lat="43.86805" lon="5.23268">
        <ele>142.9</ele>
        <time>2013-11-15T13:23:03Z</time>
      </trkpt>
      <trkpt lat="43.86801" lon="5.23272">
        <ele>142.9</ele>
        <time>2013-11-15T13:23:08Z</time>
      </trkpt>
      <trkpt lat="43.868" lon="5.23273">
        <ele>142.9</ele>
        <time>2013-11-15T13:23:09Z</time>
      </trkpt>
      <trkpt lat="43.86798" lon="5.23274">
        <ele>142.9</ele>
        <time>2013-11-15T13:23:10Z</time>
      </trkpt>
      <trkpt lat="43.86797" lon="5.23275">
        <ele>142.9</ele>
        <time>2013-11-15T13:23:11Z</time>
      </trkpt>
      <trkpt lat="43.86795" lon="5.23274">
        <ele>142.9</ele>
        <time>2013-11-15T13:23:12Z</time>
      </trkpt>
      <trkpt lat="43.86793" lon="5.23273">
        <ele>142.9</ele>
        <time>2013-11-15T13:23:13Z</time>
      </trkpt>
      <trkpt lat="43.86785" lon="5.23273">
        <ele>142.9</ele>
        <time>2013-11-15T13:23:20Z</time>
      </trkpt>
      <trkpt lat="43.86783" lon="5.23274">
        <ele>142.9</ele>
        <time>2013-11-15T13:23:22Z</time>
      </trkpt>
      <trkpt lat="43.86782" lon="5.23274">
        <ele>142.9</ele>
        <time>2013-11-15T13:23:23Z</time>
      </trkpt>
      <trkpt lat="43.8678" lon="5.23274">
        <ele>142.9</ele>
        <time>2013-11-15T13:23:24Z</time>
      </trkpt>
      <trkpt lat="43.86778" lon="5.23273">
        <ele>142.9</ele>
        <time>2013-11-15T13:23:25Z</time>
      </trkpt>
      <trkpt lat="43.86769" lon="5.23275">
        <ele>142.9</ele>
        <time>2013-11-15T13:23:33Z</time>
      </trkpt>
      <trkpt lat="43.86757" lon="5.23274">
        <ele>142.9</ele>
        <time>2013-11-15T13:23:42Z</time>
      </trkpt>
      <trkpt lat="43.8675" lon="5.23275">
        <ele>142.9</ele>
        <time>2013-11-15T13:23:46Z</time>
      </trkpt>
      <trkpt lat="43.86749" lon="5.23276">
        <ele>142.9</ele>
        <time>2013-11-15T13:23:47Z</time>
      </trkpt>
      <trkpt lat="43.86747" lon="5.23277">
        <ele>143.4</ele>
        <time>2013-11-15T13:23:49Z</time>
      </trkpt>
      <trkpt lat="43.86747" lon="5.23278">
        <ele>143.4</ele>
        <time>2013-11-15T13:23:50Z</time>
      </trkpt>
      <trkpt lat="43.86747" lon="5.23286">
        <ele>143.9</ele>
        <time>2013-11-15T13:23:54Z</time>
      </trkpt>
      <trkpt lat="43.86747" lon="5.23287">
        <ele>143.9</ele>
        <time>2013-11-15T13:23:55Z</time>
      </trkpt>
      <trkpt lat="43.86746" lon="5.23298">
        <ele>143.9</ele>
        <time>2013-11-15T13:24:03Z</time>
      </trkpt>
      <trkpt lat="43.86746" lon="5.233">
        <ele>144.3</ele>
        <time>2013-11-15T13:24:04Z</time>
      </trkpt>
      <trkpt lat="43.86747" lon="5.23305">
        <ele>144.3</ele>
        <time>2013-11-15T13:24:07Z</time>
      </trkpt>
      <trkpt lat="43.86746" lon="5.23309">
        <ele>144.8</ele>
        <time>2013-11-15T13:24:09Z</time>
      </trkpt>
      <trkpt lat="43.86743" lon="5.23317">
        <ele>144.8</ele>
        <time>2013-11-15T13:24:13Z</time>
      </trkpt>
      <trkpt lat="43.86743" lon="5.2333">
        <ele>145.3</ele>
        <time>2013-11-15T13:24:22Z</time>
      </trkpt>
      <trkpt lat="43.8674" lon="5.23352">
        <ele>146.3</ele>
        <time>2013-11-15T13:24:33Z</time>
      </trkpt>
      <trkpt lat="43.8674" lon="5.23353">
        <ele>146.3</ele>
        <time>2013-11-15T13:24:34Z</time>
      </trkpt>
      <trkpt lat="43.86736" lon="5.23358">
        <ele>146.7</ele>
        <time>2013-11-15T13:24:39Z</time>
      </trkpt>
      <trkpt lat="43.86735" lon="5.2336">
        <ele>147.2</ele>
        <time>2013-11-15T13:24:52Z</time>
      </trkpt>
      <trkpt lat="43.86735" lon="5.2336">
        <ele>146.7</ele>
        <time>2013-11-15T13:25:08Z</time>
      </trkpt>
      <trkpt lat="43.86736" lon="5.23364">
        <ele>146.3</ele>
        <time>2013-11-15T13:25:21Z</time>
      </trkpt>
      <trkpt lat="43.86735" lon="5.2337">
        <ele>146.3</ele>
        <time>2013-11-15T13:25:35Z</time>
      </trkpt>
      <trkpt lat="43.86735" lon="5.23387">
        <ele>147.2</ele>
        <time>2013-11-15T13:25:47Z</time>
      </trkpt>
      <trkpt lat="43.86734" lon="5.23395">
        <ele>148.2</ele>
        <time>2013-11-15T13:25:53Z</time>
      </trkpt>
      <trkpt lat="43.8673" lon="5.23419">
        <ele>151.1</ele>
        <time>2013-11-15T13:26:08Z</time>
      </trkpt>
      <trkpt lat="43.86722" lon="5.23436">
        <ele>153.5</ele>
        <time>2013-11-15T13:26:22Z</time>
      </trkpt>
      <trkpt lat="43.86717" lon="5.23446">
        <ele>154.9</ele>
        <time>2013-11-15T13:26:33Z</time>
      </trkpt>
      <trkpt lat="43.86714" lon="5.23456">
        <ele>156.4</ele>
        <time>2013-11-15T13:26:42Z</time>
      </trkpt>
      <trkpt lat="43.86712" lon="5.23461">
        <ele>157.3</ele>
        <time>2013-11-15T13:26:46Z</time>
      </trkpt>
      <trkpt lat="43.86708" lon="5.23465">
        <ele>157.8</ele>
        <time>2013-11-15T13:26:51Z</time>
      </trkpt>
      <trkpt lat="43.86707" lon="5.23466">
        <ele>158.8</ele>
        <time>2013-11-15T13:26:52Z</time>
      </trkpt>
      <trkpt lat="43.86705" lon="5.23468">
        <ele>158.8</ele>
        <time>2013-11-15T13:26:55Z</time>
      </trkpt>
      <trkpt lat="43.86705" lon="5.2347">
        <ele>159.2</ele>
        <time>2013-11-15T13:26:56Z</time>
      </trkpt>
      <trkpt lat="43.86703" lon="5.23473">
        <ele>159.7</ele>
        <time>2013-11-15T13:26:59Z</time>
      </trkpt>
      <trkpt lat="43.86702" lon="5.23474">
        <ele>159.7</ele>
        <time>2013-11-15T13:27:00Z</time>
      </trkpt>
      <trkpt lat="43.86701" lon="5.23474">
        <ele>159.7</ele>
        <time>2013-11-15T13:27:01Z</time>
      </trkpt>
      <trkpt lat="43.867" lon="5.23475">
        <ele>160.2</ele>
        <time>2013-11-15T13:27:02Z</time>
      </trkpt>
      <trkpt lat="43.86695" lon="5.23484">
        <ele>161.2</ele>
        <time>2013-11-15T13:27:10Z</time>
      </trkpt>
      <trkpt lat="43.86695" lon="5.23485">
        <ele>161.6</ele>
        <time>2013-11-15T13:27:11Z</time>
      </trkpt>
      <trkpt lat="43.86695" lon="5.23488">
        <ele>161.6</ele>
        <time>2013-11-15T13:27:13Z</time>
      </trkpt>
      <trkpt lat="43.86691" lon="5.23492">
        <ele>162.6</ele>
        <time>2013-11-15T13:27:17Z</time>
      </trkpt>
      <trkpt lat="43.8669" lon="5.23495">
        <ele>162.6</ele>
        <time>2013-11-15T13:27:19Z</time>
      </trkpt>
      <trkpt lat="43.86687" lon="5.23498">
        <ele>163.1</ele>
        <time>2013-11-15T13:27:22Z</time>
      </trkpt>
      <trkpt lat="43.86685" lon="5.23502">
        <ele>164</ele>
        <time>2013-11-15T13:27:26Z</time>
      </trkpt>
      <trkpt lat="43.86682" lon="5.23506">
        <ele>165</ele>
        <time>2013-11-15T13:27:31Z</time>
      </trkpt>
      <trkpt lat="43.86677" lon="5.23513">
        <ele>166</ele>
        <time>2013-11-15T13:27:39Z</time>
      </trkpt>
      <trkpt lat="43.86667" lon="5.23529">
        <ele>168.9</ele>
        <time>2013-11-15T13:27:55Z</time>
      </trkpt>
      <trkpt lat="43.86662" lon="5.23544">
        <ele>171.3</ele>
        <time>2013-11-15T13:28:09Z</time>
      </trkpt>
      <trkpt lat="43.86655" lon="5.23555">
        <ele>174.6</ele>
        <time>2013-11-15T13:28:24Z</time>
      </trkpt>
      <trkpt lat="43.86643" lon="5.23561">
        <ele>178.5</ele>
        <time>2013-11-15T13:28:39Z</time>
      </trkpt>
      <trkpt lat="43.86642" lon="5.23561">
        <ele>177</ele>
        <time>2013-11-15T13:28:42Z</time>
      </trkpt>
      <trkpt lat="43.86639" lon="5.23563">
        <ele>177.5</ele>
        <time>2013-11-15T13:28:46Z</time>
      </trkpt>
      <trkpt lat="43.86626" lon="5.23575">
        <ele>178.9</ele>
        <time>2013-11-15T13:29:02Z</time>
      </trkpt>
      <trkpt lat="43.86624" lon="5.23578">
        <ele>180.9</ele>
        <time>2013-11-15T13:29:16Z</time>
      </trkpt>
      <trkpt lat="43.86616" lon="5.23583">
        <ele>183.8</ele>
        <time>2013-11-15T13:29:32Z</time>
      </trkpt>
      <trkpt lat="43.86603" lon="5.23584">
        <ele>185.7</ele>
        <time>2013-11-15T13:29:47Z</time>
      </trkpt>
      <trkpt lat="43.86595" lon="5.23587">
        <ele>187.6</ele>
        <time>2013-11-15T13:29:59Z</time>
      </trkpt>
      <trkpt lat="43.8659" lon="5.23596">
        <ele>188.6</ele>
        <time>2013-11-15T13:30:12Z</time>
      </trkpt>
      <trkpt lat="43.8659" lon="5.23604">
        <ele>190</ele>
        <time>2013-11-15T13:30:24Z</time>
      </trkpt>
      <trkpt lat="43.86586" lon="5.23618">
        <ele>191</ele>
        <time>2013-11-15T13:30:37Z</time>
      </trkpt>
      <trkpt lat="43.86585" lon="5.23623">
        <ele>191.4</ele>
        <time>2013-11-15T13:30:58Z</time>
      </trkpt>
      <trkpt lat="43.86585" lon="5.23623">
        <ele>191.4</ele>
        <time>2013-11-15T13:31:22Z</time>
      </trkpt>
      <trkpt lat="43.86582" lon="5.23627">
        <ele>191.9</ele>
        <time>2013-11-15T13:31:39Z</time>
      </trkpt>
      <trkpt lat="43.86579" lon="5.23633">
        <ele>192.9</ele>
        <time>2013-11-15T13:31:56Z</time>
      </trkpt>
      <trkpt lat="43.86575" lon="5.23643">
        <ele>195.8</ele>
        <time>2013-11-15T13:32:16Z</time>
      </trkpt>
      <trkpt lat="43.86566" lon="5.23656">
        <ele>197.7</ele>
        <time>2013-11-15T13:32:34Z</time>
      </trkpt>
      <trkpt lat="43.86565" lon="5.23657">
        <ele>197.7</ele>
        <time>2013-11-15T13:32:40Z</time>
      </trkpt>
      <trkpt lat="43.86555" lon="5.23675">
        <ele>200.6</ele>
        <time>2013-11-15T13:32:58Z</time>
      </trkpt>
      <trkpt lat="43.86552" lon="5.23683">
        <ele>201.5</ele>
        <time>2013-11-15T13:33:04Z</time>
      </trkpt>
      <trkpt lat="43.8654" lon="5.23697">
        <ele>203</ele>
        <time>2013-11-15T13:33:18Z</time>
      </trkpt>
      <trkpt lat="43.86522" lon="5.23714">
        <ele>204.9</ele>
        <time>2013-11-15T13:33:38Z</time>
      </trkpt>
      <trkpt lat="43.86515" lon="5.23724">
        <ele>205.4</ele>
        <time>2013-11-15T13:33:46Z</time>
      </trkpt>
      <trkpt lat="43.86512" lon="5.23732">
        <ele>205.9</ele>
        <time>2013-11-15T13:33:57Z</time>
      </trkpt>
      <trkpt lat="43.86511" lon="5.23735">
        <ele>205.9</ele>
        <time>2013-11-15T13:34:15Z</time>
      </trkpt>
      <trkpt lat="43.86504" lon="5.23749">
        <ele>207.3</ele>
        <time>2013-11-15T13:34:33Z</time>
      </trkpt>
      <trkpt lat="43.86501" lon="5.23757">
        <ele>207.8</ele>
        <time>2013-11-15T13:34:42Z</time>
      </trkpt>
      <trkpt lat="43.86498" lon="5.23777">
        <ele>208.3</ele>
        <time>2013-11-15T13:35:00Z</time>
      </trkpt>
      <trkpt lat="43.865" lon="5.23777">
        <ele>208.7</ele>
        <time>2013-11-15T13:35:04Z</time>
      </trkpt>
      <trkpt lat="43.86501" lon="5.23781">
        <ele>208.7</ele>
        <time>2013-11-15T13:35:06Z</time>
      </trkpt>
      <trkpt lat="43.86495" lon="5.23795">
        <ele>210.2</ele>
        <time>2013-11-15T13:35:18Z</time>
      </trkpt>
      <trkpt lat="43.86484" lon="5.23812">
        <ele>213.1</ele>
        <time>2013-11-15T13:35:35Z</time>
      </trkpt>
      <trkpt lat="43.8648" lon="5.23824">
        <ele>214.5</ele>
        <time>2013-11-15T13:35:51Z</time>
      </trkpt>
      <trkpt lat="43.86477" lon="5.2383">
        <ele>215.5</ele>
        <time>2013-11-15T13:36:08Z</time>
      </trkpt>
      <trkpt lat="43.86473" lon="5.2384">
        <ele>216.9</ele>
        <time>2013-11-15T13:36:19Z</time>
      </trkpt>
      <trkpt lat="43.86463" lon="5.23853">
        <ele>218.8</ele>
        <time>2013-11-15T13:36:34Z</time>
      </trkpt>
      <trkpt lat="43.86462" lon="5.23854">
        <ele>219.3</ele>
        <time>2013-11-15T13:36:53Z</time>
      </trkpt>
      <trkpt lat="43.86461" lon="5.23855">
        <ele>219.3</ele>
        <time>2013-11-15T13:36:54Z</time>
      </trkpt>
      <trkpt lat="43.86454" lon="5.23871">
        <ele>220.3</ele>
        <time>2013-11-15T13:37:09Z</time>
      </trkpt>
      <trkpt lat="43.86454" lon="5.23889">
        <ele>221.7</ele>
        <time>2013-11-15T13:37:27Z</time>
      </trkpt>
      <trkpt lat="43.86454" lon="5.2391">
        <ele>224.1</ele>
        <time>2013-11-15T13:37:44Z</time>
      </trkpt>
      <trkpt lat="43.86463" lon="5.23934">
        <ele>227</ele>
        <time>2013-11-15T13:38:05Z</time>
      </trkpt>
      <trkpt lat="43.86465" lon="5.23938">
        <ele>227</ele>
        <time>2013-11-15T13:38:09Z</time>
      </trkpt>
      <trkpt lat="43.86474" lon="5.23961">
        <ele>229.4</ele>
        <time>2013-11-15T13:38:25Z</time>
      </trkpt>
      <trkpt lat="43.86475" lon="5.23973">
        <ele>231.8</ele>
        <time>2013-11-15T13:38:39Z</time>
      </trkpt>
      <trkpt lat="43.86465" lon="5.2398">
        <ele>234.7</ele>
        <time>2013-11-15T13:38:53Z</time>
      </trkpt>
      <trkpt lat="43.8646" lon="5.23987">
        <ele>236.1</ele>
        <time>2013-11-15T13:39:11Z</time>
      </trkpt>
      <trkpt lat="43.86446" lon="5.23999">
        <ele>237.6</ele>
        <time>2013-11-15T13:39:34Z</time>
      </trkpt>
      <trkpt lat="43.86445" lon="5.23996">
        <ele>238.5</ele>
        <time>2013-11-15T13:39:51Z</time>
      </trkpt>
      <trkpt lat="43.86447" lon="5.23991">
        <ele>238.1</ele>
        <time>2013-11-15T13:40:05Z</time>
      </trkpt>
      <trkpt lat="43.86448" lon="5.2399">
        <ele>238.1</ele>
        <time>2013-11-15T13:40:21Z</time>
      </trkpt>
      <trkpt lat="43.86448" lon="5.23989">
        <ele>238.1</ele>
        <time>2013-11-15T13:40:36Z</time>
      </trkpt>
      <trkpt lat="43.86445" lon="5.23988">
        <ele>238.5</ele>
        <time>2013-11-15T13:40:59Z</time>
      </trkpt>
      <trkpt lat="43.8644" lon="5.23997">
        <ele>238.5</ele>
        <time>2013-11-15T13:41:33Z</time>
      </trkpt>
      <trkpt lat="43.8645" lon="5.23986">
        <ele>238.5</ele>
        <time>2013-11-15T13:41:48Z</time>
      </trkpt>
      <trkpt lat="43.86452" lon="5.23977">
        <ele>238.5</ele>
        <time>2013-11-15T13:42:05Z</time>
      </trkpt>
      <trkpt lat="43.86448" lon="5.23978">
        <ele>238.5</ele>
        <time>2013-11-15T13:42:22Z</time>
      </trkpt>
      <trkpt lat="43.86451" lon="5.2397">
        <ele>238.5</ele>
        <time>2013-11-15T13:42:44Z</time>
      </trkpt>
      <trkpt lat="43.86455" lon="5.23968">
        <ele>238.5</ele>
        <time>2013-11-15T13:43:01Z</time>
      </trkpt>
      <trkpt lat="43.86454" lon="5.23979">
        <ele>238.5</ele>
        <time>2013-11-15T13:43:19Z</time>
      </trkpt>
      <trkpt lat="43.86455" lon="5.23981">
        <ele>239</ele>
        <time>2013-11-15T13:43:33Z</time>
      </trkpt>
      <trkpt lat="43.86455" lon="5.23979">
        <ele>239</ele>
        <time>2013-11-15T13:43:44Z</time>
      </trkpt>
      <trkpt lat="43.86452" lon="5.23985">
        <ele>239.5</ele>
        <time>2013-11-15T13:44:03Z</time>
      </trkpt>
      <trkpt lat="43.86451" lon="5.23985">
        <ele>239.5</ele>
        <time>2013-11-15T13:44:23Z</time>
      </trkpt>
      <trkpt lat="43.86451" lon="5.23982">
        <ele>239.5</ele>
        <time>2013-11-15T13:44:45Z</time>
      </trkpt>
      <trkpt lat="43.86443" lon="5.2398">
        <ele>240.5</ele>
        <time>2013-11-15T13:44:58Z</time>
      </trkpt>
      <trkpt lat="43.86431" lon="5.23984">
        <ele>242.4</ele>
        <time>2013-11-15T13:45:11Z</time>
      </trkpt>
      <trkpt lat="43.86428" lon="5.23995">
        <ele>245.3</ele>
        <time>2013-11-15T13:45:32Z</time>
      </trkpt>
      <trkpt lat="43.86424" lon="5.24001">
        <ele>248.2</ele>
        <time>2013-11-15T13:45:50Z</time>
      </trkpt>
      <trkpt lat="43.86415" lon="5.24009">
        <ele>250.6</ele>
        <time>2013-11-15T13:46:05Z</time>
      </trkpt>
      <trkpt lat="43.86413" lon="5.2401">
        <ele>250.6</ele>
        <time>2013-11-15T13:46:15Z</time>
      </trkpt>
      <trkpt lat="43.86406" lon="5.2402">
        <ele>252.5</ele>
        <time>2013-11-15T13:46:28Z</time>
      </trkpt>
      <trkpt lat="43.86405" lon="5.24023">
        <ele>253</ele>
        <time>2013-11-15T13:46:31Z</time>
      </trkpt>
      <trkpt lat="43.86403" lon="5.24026">
        <ele>253</ele>
        <time>2013-11-15T13:46:42Z</time>
      </trkpt>
      <trkpt lat="43.86402" lon="5.24028">
        <ele>252.5</ele>
        <time>2013-11-15T13:46:53Z</time>
      </trkpt>
      <trkpt lat="43.86402" lon="5.24031">
        <ele>253</ele>
        <time>2013-11-15T13:47:09Z</time>
      </trkpt>
      <trkpt lat="43.86405" lon="5.24036">
        <ele>253.4</ele>
        <time>2013-11-15T13:47:24Z</time>
      </trkpt>
      <trkpt lat="43.86407" lon="5.24036">
        <ele>253.9</ele>
        <time>2013-11-15T13:47:46Z</time>
      </trkpt>
      <trkpt lat="43.86408" lon="5.24035">
        <ele>253.4</ele>
        <time>2013-11-15T13:48:03Z</time>
      </trkpt>
      <trkpt lat="43.86407" lon="5.2404">
        <ele>253.4</ele>
        <time>2013-11-15T13:48:27Z</time>
      </trkpt>
      <trkpt lat="43.86408" lon="5.2404">
        <ele>253.9</ele>
        <time>2013-11-15T13:48:47Z</time>
      </trkpt>
      <trkpt lat="43.86413" lon="5.24033">
        <ele>255.4</ele>
        <time>2013-11-15T13:48:59Z</time>
      </trkpt>
      <trkpt lat="43.86417" lon="5.24032">
        <ele>255.4</ele>
        <time>2013-11-15T13:49:09Z</time>
      </trkpt>
      <trkpt lat="43.86432" lon="5.24037">
        <ele>256.3</ele>
        <time>2013-11-15T13:49:22Z</time>
      </trkpt>
      <trkpt lat="43.86442" lon="5.24049">
        <ele>256.3</ele>
        <time>2013-11-15T13:49:40Z</time>
      </trkpt>
      <trkpt lat="43.86444" lon="5.24061">
        <ele>255.4</ele>
        <time>2013-11-15T13:49:57Z</time>
      </trkpt>
      <trkpt lat="43.86454" lon="5.2406">
        <ele>256.3</ele>
        <time>2013-11-15T13:50:10Z</time>
      </trkpt>
      <trkpt lat="43.86462" lon="5.24061">
        <ele>256.8</ele>
        <time>2013-11-15T13:50:23Z</time>
      </trkpt>
      <trkpt lat="43.86466" lon="5.2406">
        <ele>256.8</ele>
        <time>2013-11-15T13:50:40Z</time>
      </trkpt>
      <trkpt lat="43.86469" lon="5.24054">
        <ele>256.3</ele>
        <time>2013-11-15T13:50:55Z</time>
      </trkpt>
      <trkpt lat="43.86469" lon="5.24054">
        <ele>256.3</ele>
        <time>2013-11-15T13:51:22Z</time>
      </trkpt>
      <trkpt lat="43.86469" lon="5.24055">
        <ele>256.3</ele>
        <time>2013-11-15T13:51:42Z</time>
      </trkpt>
      <trkpt lat="43.86466" lon="5.2406">
        <ele>256.3</ele>
        <time>2013-11-15T13:51:57Z</time>
      </trkpt>
      <trkpt lat="43.86464" lon="5.24061">
        <ele>255.9</ele>
        <time>2013-11-15T13:52:10Z</time>
      </trkpt>
      <trkpt lat="43.86457" lon="5.24064">
        <ele>255.4</ele>
        <time>2013-11-15T13:52:22Z</time>
      </trkpt>
      <trkpt lat="43.86447" lon="5.24066">
        <ele>254.4</ele>
        <time>2013-11-15T13:52:37Z</time>
      </trkpt>
      <trkpt lat="43.86447" lon="5.24072">
        <ele>253</ele>
        <time>2013-11-15T13:52:53Z</time>
      </trkpt>
      <trkpt lat="43.86442" lon="5.24079">
        <ele>250.1</ele>
        <time>2013-11-15T13:53:10Z</time>
      </trkpt>
      <trkpt lat="43.86437" lon="5.24077">
        <ele>249.6</ele>
        <time>2013-11-15T13:53:25Z</time>
      </trkpt>
      <trkpt lat="43.86438" lon="5.2409">
        <ele>248.6</ele>
        <time>2013-11-15T13:53:38Z</time>
      </trkpt>
      <trkpt lat="43.86439" lon="5.24097">
        <ele>248.6</ele>
        <time>2013-11-15T13:54:01Z</time>
      </trkpt>
      <trkpt lat="43.86441" lon="5.24097">
        <ele>248.6</ele>
        <time>2013-11-15T13:54:15Z</time>
      </trkpt>
      <trkpt lat="43.86446" lon="5.24095">
        <ele>248.2</ele>
        <time>2013-11-15T13:54:34Z</time>
      </trkpt>
      <trkpt lat="43.86449" lon="5.24102">
        <ele>248.2</ele>
        <time>2013-11-15T13:54:48Z</time>
      </trkpt>
      <trkpt lat="43.8645" lon="5.24104">
        <ele>248.2</ele>
        <time>2013-11-15T13:55:03Z</time>
      </trkpt>
      <trkpt lat="43.86447" lon="5.24102">
        <ele>248.6</ele>
        <time>2013-11-15T13:55:17Z</time>
      </trkpt>
      <trkpt lat="43.86445" lon="5.24096">
        <ele>249.1</ele>
        <time>2013-11-15T13:55:29Z</time>
      </trkpt>
      <trkpt lat="43.86441" lon="5.24091">
        <ele>249.1</ele>
        <time>2013-11-15T13:55:40Z</time>
      </trkpt>
      <trkpt lat="43.86439" lon="5.24087">
        <ele>248.2</ele>
        <time>2013-11-15T13:55:54Z</time>
      </trkpt>
      <trkpt lat="43.86431" lon="5.24087">
        <ele>248.2</ele>
        <time>2013-11-15T13:56:09Z</time>
      </trkpt>
      <trkpt lat="43.86424" lon="5.24084">
        <ele>247.7</ele>
        <time>2013-11-15T13:56:34Z</time>
      </trkpt>
      <trkpt lat="43.86422" lon="5.24083">
        <ele>247.2</ele>
        <time>2013-11-15T13:56:59Z</time>
      </trkpt>
      <trkpt lat="43.86424" lon="5.24095">
        <ele>246.2</ele>
        <time>2013-11-15T13:57:16Z</time>
      </trkpt>
      <trkpt lat="43.86424" lon="5.24103">
        <ele>245.3</ele>
        <time>2013-11-15T13:57:30Z</time>
      </trkpt>
      <trkpt lat="43.86426" lon="5.24121">
        <ele>243.8</ele>
        <time>2013-11-15T13:57:45Z</time>
      </trkpt>
      <trkpt lat="43.86427" lon="5.24133">
        <ele>242.9</ele>
        <time>2013-11-15T13:58:00Z</time>
      </trkpt>
      <trkpt lat="43.86428" lon="5.24144">
        <ele>241.4</ele>
        <time>2013-11-15T13:58:17Z</time>
      </trkpt>
      <trkpt lat="43.86429" lon="5.24155">
        <ele>240.5</ele>
        <time>2013-11-15T13:58:33Z</time>
      </trkpt>
      <trkpt lat="43.86427" lon="5.24156">
        <ele>240.5</ele>
        <time>2013-11-15T13:58:54Z</time>
      </trkpt>
      <trkpt lat="43.86424" lon="5.24162">
        <ele>240.5</ele>
        <time>2013-11-15T13:59:11Z</time>
      </trkpt>
      <trkpt lat="43.86415" lon="5.24168">
        <ele>239.5</ele>
        <time>2013-11-15T13:59:29Z</time>
      </trkpt>
      <trkpt lat="43.86409" lon="5.24171">
        <ele>239</ele>
        <time>2013-11-15T13:59:49Z</time>
      </trkpt>
      <trkpt lat="43.86408" lon="5.24171">
        <ele>238.5</ele>
        <time>2013-11-15T14:00:08Z</time>
      </trkpt>
      <trkpt lat="43.86402" lon="5.24172">
        <ele>238.1</ele>
        <time>2013-11-15T14:00:26Z</time>
      </trkpt>
      <trkpt lat="43.86393" lon="5.24174">
        <ele>236.6</ele>
        <time>2013-11-15T14:00:42Z</time>
      </trkpt>
      <trkpt lat="43.8638" lon="5.24182">
        <ele>234.7</ele>
        <time>2013-11-15T14:01:07Z</time>
      </trkpt>
      <trkpt lat="43.8637" lon="5.24194">
        <ele>233.3</ele>
        <time>2013-11-15T14:01:28Z</time>
      </trkpt>
      <trkpt lat="43.86359" lon="5.24203">
        <ele>231.8</ele>
        <time>2013-11-15T14:01:43Z</time>
      </trkpt>
      <trkpt lat="43.86354" lon="5.24226">
        <ele>229.9</ele>
        <time>2013-11-15T14:02:00Z</time>
      </trkpt>
      <trkpt lat="43.86353" lon="5.24246">
        <ele>228.5</ele>
        <time>2013-11-15T14:02:17Z</time>
      </trkpt>
      <trkpt lat="43.86354" lon="5.24259">
        <ele>228</ele>
        <time>2013-11-15T14:02:32Z</time>
      </trkpt>
      <trkpt lat="43.86351" lon="5.24258">
        <ele>228</ele>
        <time>2013-11-15T14:02:52Z</time>
      </trkpt>
      <trkpt lat="43.86351" lon="5.24259">
        <ele>228</ele>
        <time>2013-11-15T14:03:13Z</time>
      </trkpt>
      <trkpt lat="43.8635" lon="5.24259">
        <ele>227.5</ele>
        <time>2013-11-15T14:03:35Z</time>
      </trkpt>
      <trkpt lat="43.86347" lon="5.24273">
        <ele>227</ele>
        <time>2013-11-15T14:03:46Z</time>
      </trkpt>
      <trkpt lat="43.86343" lon="5.24285">
        <ele>227</ele>
        <time>2013-11-15T14:04:00Z</time>
      </trkpt>
      <trkpt lat="43.86343" lon="5.24283">
        <ele>227</ele>
        <time>2013-11-15T14:04:19Z</time>
      </trkpt>
      <trkpt lat="43.86341" lon="5.24292">
        <ele>227</ele>
        <time>2013-11-15T14:04:37Z</time>
      </trkpt>
      <trkpt lat="43.86334" lon="5.24299">
        <ele>226.5</ele>
        <time>2013-11-15T14:04:52Z</time>
      </trkpt>
      <trkpt lat="43.86329" lon="5.24311">
        <ele>226.1</ele>
        <time>2013-11-15T14:05:07Z</time>
      </trkpt>
      <trkpt lat="43.86327" lon="5.24311">
        <ele>226.1</ele>
        <time>2013-11-15T14:05:26Z</time>
      </trkpt>
      <trkpt lat="43.8632" lon="5.2432">
        <ele>226.1</ele>
        <time>2013-11-15T14:05:42Z</time>
      </trkpt>
      <trkpt lat="43.86314" lon="5.24332">
        <ele>225.6</ele>
        <time>2013-11-15T14:05:50Z</time>
      </trkpt>
      <trkpt lat="43.86312" lon="5.24338">
        <ele>225.6</ele>
        <time>2013-11-15T14:05:54Z</time>
      </trkpt>
      <trkpt lat="43.86309" lon="5.24349">
        <ele>225.6</ele>
        <time>2013-11-15T14:06:05Z</time>
      </trkpt>
      <trkpt lat="43.86306" lon="5.24349">
        <ele>225.6</ele>
        <time>2013-11-15T14:06:22Z</time>
      </trkpt>
      <trkpt lat="43.86305" lon="5.24351">
        <ele>225.6</ele>
        <time>2013-11-15T14:06:37Z</time>
      </trkpt>
      <trkpt lat="43.86304" lon="5.24351">
        <ele>225.6</ele>
        <time>2013-11-15T14:06:47Z</time>
      </trkpt>
      <trkpt lat="43.86303" lon="5.24349">
        <ele>225.6</ele>
        <time>2013-11-15T14:07:06Z</time>
      </trkpt>
      <trkpt lat="43.86302" lon="5.2435">
        <ele>225.6</ele>
        <time>2013-11-15T14:07:23Z</time>
      </trkpt>
      <trkpt lat="43.86301" lon="5.24351">
        <ele>225.6</ele>
        <time>2013-11-15T14:07:41Z</time>
      </trkpt>
      <trkpt lat="43.86301" lon="5.24352">
        <ele>225.6</ele>
        <time>2013-11-15T14:08:03Z</time>
      </trkpt>
      <trkpt lat="43.86302" lon="5.24352">
        <ele>225.6</ele>
        <time>2013-11-15T14:08:17Z</time>
      </trkpt>
      <trkpt lat="43.86303" lon="5.24353">
        <ele>225.6</ele>
        <time>2013-11-15T14:08:33Z</time>
      </trkpt>
      <trkpt lat="43.86303" lon="5.24354">
        <ele>226.1</ele>
        <time>2013-11-15T14:08:53Z</time>
      </trkpt>
      <trkpt lat="43.86302" lon="5.24354">
        <ele>225.6</ele>
        <time>2013-11-15T14:09:13Z</time>
      </trkpt>
      <trkpt lat="43.86301" lon="5.24352">
        <ele>225.6</ele>
        <time>2013-11-15T14:09:33Z</time>
      </trkpt>
    </trkseg>
  </trk>
</gpx>